Data for 09/08/2009

Time Sea-Level Adjusted Pressure Absolute Pressure Temperature Relative Humidity Dew Point Precipitation   
(mb) (inHg) (mb) (inHg) (C) (F) (%) (C) (F) (mm) (in)
00:01 1019 30.09 848 25.04 8.7 47.7 60 1.4 34.6 9.14 0.36
00:02 1019 30.09 848 25.04 8.7 47.7 61 1.7 35.1 9.15 0.36
00:03 1019 30.09 849 25.07 8.7 47.7 60 1.5 34.7 9.11 0.359
00:04 1019 30.09 849 25.07 8.7 47.6 60 1.4 34.4 9.07 0.357
00:05 1019 30.09 849 25.07 8.7 47.6 60 1.4 34.5 9.07 0.357
00:06 1019 30.09 849 25.07 8.7 47.6 60 1.4 34.5 9.06 0.357
00:07 1019 30.09 849 25.07 8.7 47.6 60 1.3 34.3 9.09 0.358
00:08 1019 30.09 849 25.07 8.7 47.6 61 1.7 35 9.1 0.358
00:09 1019 30.09 849 25.07 8.6 47.6 61 1.5 34.8 9.05 0.356
00:10 1019 30.09 849 25.07 8.6 47.5 60 1.3 34.4 9 0.354
00:11 1019 30.09 849 25.07 8.6 47.5 61 1.5 34.6 9.03 0.356
00:12 1019 30.09 849 25.07 8.6 47.5 60 1.4 34.5 8.99 0.354
00:13 1019 30.09 849 25.07 8.7 47.6 57 0.7 33.3 9.02 0.355
00:14 1019 30.09 849 25.07 8.7 47.7 58 0.9 33.6 9.08 0.357
00:15 1019 30.09 849 25.07 8.8 47.8 58 1.1 33.9 9.14 0.36
00:16 1019 30.09 849 25.07 8.7 47.7 59 1.3 34.3 9.13 0.359
00:17 1019 30.09 849 25.07 8.7 47.6 61 1.5 34.7 9.07 0.357
00:18 1019 30.09 849 25.07 8.5 47.3 61 1.4 34.6 8.99 0.354
00:19 1019 30.09 849 25.07 8.5 47.2 61 1.4 34.6 8.85 0.348
00:20 1019 30.09 849 25.07 8.5 47.2 60 1.3 34.3 8.81 0.347
00:21 1019 30.09 849 25.07 8.4 47.2 61 1.4 34.6 8.84 0.348
00:22 1019 30.09 849 25.07 8.4 47.2 60 1.1 34 8.84 0.348
00:23 1019 30.09 849 25.07 8.4 47.2 62 1.5 34.7 8.84 0.348
00:24 1019 30.09 849 25.07 8.4 47.1 62 1.5 34.7 8.81 0.347
00:25 1019 30.09 849 25.07 8.4 47.1 61 1.4 34.5 8.77 0.345
00:26 1019 30.09 849 25.07 8.4 47 62 1.4 34.6 8.77 0.345
00:27 1019 30.09 849 25.07 8.3 47 62 1.6 34.9 8.74 0.344
00:28 1019 30.09 849 25.07 8.3 46.9 62 1.4 34.5 8.72 0.343
00:29 1019 30.09 849 25.07 8.3 46.9 60 0.9 33.7 8.7 0.343
00:30 1020 30.12 849 25.07 8.4 47 61 1.4 34.5 8.72 0.343
00:31 1019 30.09 849 25.07 8.3 46.9 62 1.4 34.5 8.73 0.344
00:32 1020 30.12 849 25.07 8.3 46.9 62 1.4 34.6 8.72 0.343
00:33 1020 30.12 849 25.07 8.3 46.9 62 1.4 34.5 8.69 0.342
00:34 1020 30.12 849 25.07 8.3 46.9 61 1.3 34.3 8.69 0.342
00:35 1020 30.12 849 25.07 8.3 46.9 60 1 33.8 8.71 0.343
00:36 1020 30.12 849 25.07 8.4 47.2 59 1 33.8 8.75 0.344
00:37 1020 30.12 849 25.07 8.5 47.4 58 0.9 33.5 8.86 0.349
00:38 1020 30.12 849 25.07 8.6 47.6 59 1.1 34 8.98 0.354
00:39 1020 30.12 849 25.07 8.7 47.6 60 1.4 34.5 9.03 0.356
00:40 1020 30.12 849 25.07 8.6 47.4 62 1.7 35 9.02 0.355
00:41 1020 30.12 849 25.07 8.5 47.3 61 1.4 34.5 8.94 0.352
00:42 1020 30.12 849 25.07 8.5 47.3 60 1.2 34.1 8.9 0.35
00:43 1020 30.12 849 25.07 8.6 47.5 60 1.3 34.4 8.93 0.352
00:44 1020 30.12 849 25.07 8.6 47.5 61 1.4 34.6 8.99 0.354
00:45 1020 30.12 849 25.07 8.6 47.5 60 1.3 34.4 8.97 0.353
00:46 1020 30.12 849 25.07 8.6 47.4 60 1.3 34.4 8.96 0.353
00:47 1020 30.12 849 25.07 8.6 47.4 61 1.6 34.9 8.97 0.353
00:48 1020 30.12 849 25.07 8.5 47.4 62 1.7 35 8.94 0.352
00:49 1020 30.12 849 25.07 8.5 47.2 61 1.4 34.6 8.89 0.35
00:50 1020 30.12 849 25.07 8.5 47.2 61 1.4 34.5 8.84 0.348
00:51 1020 30.12 849 25.07 8.5 47.3 61 1.4 34.5 8.86 0.349
00:52 1020 30.12 849 25.07 8.5 47.3 60 1.1 34 8.89 0.35
00:53 1020 30.12 849 25.07 8.6 47.4 61 1.5 34.6 8.87 0.349
00:54 1020 30.12 849 25.07 8.5 47.3 59 1.1 33.9 8.94 0.352
00:55 1020 30.12 849 25.07 8.6 47.4 60 1.2 34.1 8.93 0.352
00:56 1020 30.12 849 25.07 8.7 47.6 59 1 33.8 8.98 0.354
00:57 1020 30.12 849 25.07 8.7 47.6 60 1.3 34.3 9.05 0.356
00:58 1020 30.12 849 25.07 8.6 47.5 59 1.1 34.1 9.02 0.355
00:59 1020 30.12 849 25.07 8.6 47.5 59 1.2 34.1 8.97 0.353
01:00 1020 30.12 849 25.07 8.6 47.5 60 1.3 34.4 8.98 0.354
01:01 1020 30.12 849 25.07 8.6 47.4 61 1.4 34.6 8.97 0.353
01:02 1020 30.12 849 25.07 8.5 47.3 60 1.2 34.2 8.91 0.351
01:03 1020 30.12 849 25.07 8.5 47.2 61 1.3 34.4 8.89 0.35
01:04 1020 30.12 849 25.07 8.4 47.2 61 1.3 34.4 8.81 0.347
01:05 1020 30.12 849 25.07 8.4 47.1 60 1.2 34.2 8.81 0.347
01:06 1020 30.12 849 25.07 8.4 47.1 62 1.5 34.6 8.79 0.346
01:07 1020 30.12 849 25.07 8.3 46.9 61 1.3 34.3 8.7 0.343
01:08 1020 30.12 849 25.07 8.3 46.9 62 1.4 34.5 8.68 0.342
01:09 1020 30.12 849 25.07 8.2 46.8 61 1.2 34.2 8.65 0.341
01:10 1020 30.12 849 25.07 8.3 46.9 62 1.5 34.8 8.68 0.342
01:11 1020 30.12 849 25.07 8.3 46.9 61 1.3 34.3 8.67 0.341
01:12 1020 30.12 849 25.07 8.2 46.8 62 1.4 34.6 8.68 0.342
01:13 1020 30.12 849 25.07 8.2 46.8 62 1.3 34.4 8.64 0.34
01:14 1020 30.12 849 25.07 8.2 46.8 63 1.6 34.8 8.62 0.339
01:15 1020 30.12 849 25.07 8.2 46.8 62 1.3 34.4 8.58 0.338
01:16 1020 30.12 849 25.07 8.2 46.8 62 1.3 34.4 8.59 0.338
01:17 1020 30.12 849 25.07 8.1 46.6 62 1.4 34.5 8.54 0.336
01:18 1020 30.12 849 25.07 8.1 46.6 63 1.5 34.7 8.54 0.336
01:19 1020 30.12 849 25.07 8.1 46.5 63 1.5 34.7 8.49 0.334
01:20 1020 30.12 849 25.07 8.1 46.5 62 1.2 34.2 8.47 0.333
01:21 1020 30.12 849 25.07 8.1 46.5 63 1.4 34.6 8.47 0.333
01:22 1020 30.12 849 25.07 8.1 46.5 64 1.6 34.9 8.44 0.332
01:23 1020 30.12 849 25.07 8 46.4 63 1.5 34.7 8.4 0.331
01:24 1020 30.12 849 25.07 8 46.4 64 1.6 34.9 8.4 0.331
01:25 1020 30.12 849 25.07 8 46.4 63 1.4 34.6 8.39 0.33
01:26 1020 30.12 849 25.07 8 46.4 62 1.3 34.3 8.44 0.332
01:27 1020 30.12 849 25.07 8.2 46.7 62 1.4 34.5 8.46 0.333
01:28 1020 30.12 849 25.07 8.2 46.7 62 1.4 34.5 8.56 0.337
01:29 1020 30.12 849 25.07 8.2 46.8 62 1.3 34.3 8.61 0.339
01:30 1020 30.12 849 25.07 8.2 46.7 62 1.3 34.3 8.6 0.339
01:31 1020 30.12 849 25.07 8.2 46.7 62 1.5 34.6 8.58 0.338
01:32 1020 30.12 849 25.07 8.2 46.7 62 1.5 34.6 8.55 0.337
01:33 1020 30.12 849 25.07 8.2 46.7 62 1.4 34.5 8.55 0.337
01:34 1020 30.12 849 25.07 8.2 46.7 62 1.3 34.3 8.57 0.337
01:35 1020 30.12 849 25.07 8.2 46.8 61 1.3 34.3 8.61 0.339
01:36 1020 30.12 849 25.07 8.2 46.8 61 1.2 34.2 8.63 0.34
01:37 1020 30.12 849 25.07 8.3 46.9 61 1.3 34.4 8.64 0.34
01:38 1020 30.12 849 25.07 8.3 46.9 62 1.4 34.6 8.67 0.341
01:39 1020 30.12 849 25.07 8.3 46.9 61 1.3 34.3 8.65 0.341
01:40 1020 30.12 849 25.07 8.3 47 60 1.1 34 8.7 0.343
01:41 1020 30.12 849 25.07 8.3 47 61 1.3 34.4 8.69 0.342
01:42 1020 30.12 849 25.07 8.3 47 61 1.4 34.5 8.7 0.343
01:43 1020 30.12 849 25.07 8.4 47 60 1.1 33.9 8.74 0.344
01:44 1020 30.12 849 25.07 8.4 47.2 60 1.2 34.1 8.78 0.346
01:45 1020 30.12 849 25.07 8.4 47.1 61 1.3 34.3 8.81 0.347
01:46 1020 30.12 849 25.07 8.4 47 61 1.4 34.5 8.79 0.346
01:47 1020 30.12 849 25.07 8.4 47.1 59 0.8 33.5 8.75 0.344
01:48 1020 30.12 849 25.07 8.5 47.3 58 0.8 33.5 8.83 0.348
01:49 1020 30.12 849 25.07 8.6 47.4 59 1 33.7 8.93 0.352
01:50 1020 30.12 849 25.07 8.6 47.5 59 1.1 34 8.95 0.352
01:51 1020 30.12 849 25.07 8.6 47.5 59 1.1 34 8.96 0.353
01:52 1020 30.12 849 25.07 8.6 47.4 60 1.3 34.3 8.94 0.352
01:53 1020 30.12 849 25.07 8.5 47.2 58 0.7 33.3 8.88 0.35
01:54 1020 30.12 850 25.1 8.5 47.4 57 0.6 33.1 8.91 0.351
01:55 1020 30.12 849 25.07 8.7 47.6 57 0.7 33.2 8.97 0.353
01:56 1020 30.12 850 25.1 8.7 47.6 57 0.7 33.3 9.01 0.355
01:57 1020 30.12 850 25.1 8.7 47.6 57 0.5 33 9.04 0.356
01:58 1020 30.12 850 25.1 8.7 47.6 57 0.6 33.1 9.05 0.356
01:59 1020 30.12 850 25.1 8.7 47.6 58 0.9 33.7 9.07 0.357
02:00 1020 30.12 850 25.1 8.7 47.6 58 1 33.7 9.03 0.356
02:01 1020 30.12 850 25.1 8.6 47.5 57 0.5 32.9 9 0.354
02:02 1020 30.12 850 25.1 8.6 47.6 58 0.8 33.5 9.03 0.356
02:03 1020 30.12 850 25.1 8.7 47.6 58 0.9 33.6 9.06 0.357
02:04 1020 30.12 850 25.1 8.6 47.5 59 1 33.8 9.02 0.355
02:05 1020 30.12 850 25.1 8.6 47.5 58 0.9 33.6 8.95 0.352
02:06 1020 30.12 850 25.1 8.5 47.4 58 0.8 33.4 8.96 0.353
02:07 1020 30.12 850 25.1 8.6 47.4 57 0.7 33.2 8.95 0.352
02:08 1020 30.12 850 25.1 8.6 47.5 58 0.8 33.4 8.98 0.354
02:09 1020 30.12 850 25.1 8.6 47.5 59 1.1 33.9 9.01 0.355
02:10 1020 30.12 850 25.1 8.6 47.5 59 1.1 33.9 8.98 0.354
02:11 1020 30.12 850 25.1 8.6 47.5 59 1 33.7 8.96 0.353
02:12 1020 30.12 850 25.1 8.6 47.5 59 1.1 33.9 8.98 0.354
02:13 1020 30.12 850 25.1 8.6 47.4 58 0.9 33.7 8.95 0.352
02:14 1020 30.12 850 25.1 8.6 47.4 59 1.1 33.9 8.96 0.353
02:15 1020 30.12 850 25.1 8.6 47.4 59 1.1 33.9 8.94 0.352
02:16 1020 30.12 850 25.1 8.6 47.4 58 0.8 33.4 8.95 0.352
02:17 1020 30.12 850 25.1 8.6 47.5 58 0.9 33.6 8.98 0.354
02:18 1020 30.12 850 25.1 8.6 47.4 59 1.1 34 9 0.354
02:19 1020 30.12 850 25.1 8.6 47.4 59 1.1 34.1 8.96 0.353
02:20 1020 30.12 850 25.1 8.5 47.3 60 1.3 34.3 8.93 0.352
02:21 1020 30.12 850 25.1 8.5 47.2 59 1 33.9 8.84 0.348
02:22 1020 30.12 850 25.1 8.4 47.2 61 1.4 34.6 8.84 0.348
02:23 1020 30.12 850 25.1 8.3 46.9 63 1.6 34.9 8.77 0.345
02:24 1020 30.12 850 25.1 8.2 46.8 61 1.3 34.3 8.69 0.342
02:25 1021 30.15 850 25.1 8.2 46.8 62 1.4 34.5 8.61 0.339
02:26 1020 30.12 850 25.1 8.2 46.7 61 1.1 34 8.57 0.337
02:27 1021 30.15 850 25.1 8.2 46.8 62 1.3 34.4 8.61 0.339
02:28 1021 30.15 850 25.1 8.3 46.9 62 1.3 34.4 8.65 0.341
02:29 1021 30.15 850 25.1 8.3 46.9 62 1.4 34.5 8.66 0.341
02:30 1021 30.15 850 25.1 8.2 46.8 63 1.6 34.9 8.65 0.341
02:31 1021 30.15 850 25.1 8.2 46.7 63 1.7 35 8.61 0.339
02:32 1021 30.15 850 25.1 8.1 46.7 63 1.4 34.6 8.55 0.337
02:33 1021 30.15 850 25.1 8.1 46.6 64 1.7 35 8.52 0.335
02:34 1021 30.15 850 25.1 8.1 46.5 63 1.4 34.6 8.49 0.334
02:35 1021 30.15 850 25.1 8 46.5 63 1.4 34.6 8.48 0.334
02:36 1021 30.15 850 25.1 8 46.5 63 1.5 34.7 8.46 0.333
02:37 1021 30.15 850 25.1 8 46.4 64 1.6 34.9 8.43 0.332
02:38 1021 30.15 850 25.1 8 46.4 64 1.6 34.9 8.42 0.331
02:39 1021 30.15 850 25.1 8 46.4 63 1.5 34.7 8.35 0.329
02:40 1021 30.15 850 25.1 8 46.4 62 1.3 34.3 8.39 0.33
02:41 1021 30.15 850 25.1 8 46.4 64 1.6 34.8 8.4 0.331
02:42 1021 30.15 850 25.1 8 46.4 63 1.4 34.5 8.42 0.331
02:43 1021 30.15 850 25.1 8 46.5 62 1.2 34.2 8.39 0.33
02:44 1021 30.15 850 25.1 8.1 46.6 62 1.3 34.3 8.45 0.333
02:45 1021 30.15 850 25.1 8.1 46.6 63 1.5 34.6 8.5 0.335
02:46 1021 30.15 850 25.1 8.2 46.7 62 1.4 34.5 8.5 0.335
02:47 1021 30.15 850 25.1 8.2 46.7 63 1.6 34.9 8.56 0.337
02:48 1021 30.15 850 25.1 8.1 46.6 64 1.7 35 8.55 0.337
02:49 1021 30.15 850 25.1 8.1 46.5 64 1.8 35.2 8.47 0.333
02:50 1021 30.15 850 25.1 8 46.4 65 1.9 35.4 8.42 0.331
02:51 1021 30.15 850 25.1 8 46.3 65 1.9 35.4 8.38 0.33
02:52 1021 30.15 850 25.1 7.9 46.2 66 2 35.5 8.33 0.328
02:53 1021 30.15 850 25.1 7.8 46.1 67 2 35.6 8.25 0.325
02:54 1021 30.15 850 25.1 7.8 46 68 2.3 36.2 8.22 0.324
02:55 1021 30.15 850 25.1 7.7 45.8 69 2.4 36.3 8.18 0.322
02:56 1021 30.15 850 25.1 7.6 45.7 70 2.5 36.5 8.08 0.318
02:57 1021 30.15 850 25.1 7.6 45.6 70 2.5 36.5 8.07 0.318
02:58 1021 30.15 850 25.1 7.5 45.6 70 2.5 36.5 7.99 0.315
02:59 1021 30.15 850 25.1 7.5 45.4 69 2.2 36 7.92 0.312
03:00 1021 30.15 850 25.1 7.5 45.5 67 1.9 35.4 7.9 0.311
03:01 1021 30.15 850 25.1 7.5 45.6 67 1.8 35.2 7.92 0.312
03:02 1021 30.15 850 25.1 7.6 45.7 66 1.8 35.2 7.99 0.315
03:03 1021 30.15 850 25.1 7.7 45.8 67 1.9 35.4 8.01 0.315
03:04 1021 30.15 850 25.1 7.7 45.8 67 1.9 35.4 8.05 0.317
03:05 1021 30.15 850 25.1 7.7 45.8 66 1.8 35.3 8.02 0.316
03:06 1021 30.15 850 25.1 7.7 45.8 66 1.8 35.3 8.07 0.318
03:07 1021 30.15 850 25.1 7.7 45.8 67 1.9 35.5 8.04 0.317
03:08 1021 30.15 850 25.1 7.7 45.8 66 1.9 35.3 8.07 0.318
03:09 1021 30.15 850 25.1 7.7 45.8 67 2 35.6 8.1 0.319
03:10 1021 30.15 850 25.1 7.7 45.8 67 1.9 35.5 8.08 0.318
03:11 1021 30.15 850 25.1 7.7 45.8 67 2 35.6 8.04 0.317
03:12 1021 30.15 850 25.1 7.6 45.7 68 2.1 35.7 8.03 0.316
03:13 1021 30.15 850 25.1 7.6 45.7 69 2.2 36 8.02 0.316
03:14 1021 30.15 850 25.1 7.6 45.7 71 2.7 36.9 8.01 0.315
03:15 1021 30.15 850 25.1 7.5 45.4 71 2.6 36.7 7.94 0.313
03:16 1021 30.15 850 25.1 7.4 45.4 71 2.5 36.4 7.86 0.309
03:17 1021 30.15 850 25.1 7.4 45.3 71 2.5 36.5 7.82 0.308
03:18 1021 30.15 850 25.1 7.4 45.2 71 2.5 36.4 7.79 0.307
03:19 1021 30.15 850 25.1 7.3 45.2 71 2.5 36.4 7.76 0.306
03:20 1021 30.15 850 25.1 7.3 45.2 71 2.5 36.5 7.75 0.305
03:21 1021 30.15 850 25.1 7.3 45.2 70 2.3 36.2 7.74 0.305
03:22 1021 30.15 850 25.1 7.4 45.2 71 2.4 36.3 7.71 0.304
03:23 1021 30.15 850 25.1 7.4 45.3 71 2.4 36.3 7.73 0.304
03:24 1021 30.15 850 25.1 7.4 45.2 71 2.5 36.4 7.75 0.305
03:25 1021 30.15 850 25.1 7.4 45.2 70 2.3 36.2 7.75 0.305
03:26 1021 30.15 850 25.1 7.4 45.2 71 2.5 36.6 7.77 0.306
03:27 1021 30.15 850 25.1 7.3 45.2 71 2.5 36.5 7.78 0.306
03:28 1021 30.15 850 25.1 7.3 45.2 70 2.3 36.1 7.73 0.304
03:29 1021 30.15 850 25.1 7.3 45.2 70 2.3 36.1 7.72 0.304
03:30 1021 30.15 850 25.1 7.4 45.2 69 2.1 35.7 7.73 0.304
03:31 1021 30.15 850 25.1 7.4 45.2 68 1.9 35.4 7.72 0.304
03:32 1021 30.15 850 25.1 7.4 45.4 69 2.1 35.8 7.77 0.306
03:33 1021 30.15 850 25.1 7.4 45.3 70 2.2 36 7.81 0.307
03:34 1021 30.15 850 25.1 7.4 45.3 69 2.2 35.9 7.79 0.307
03:35 1021 30.15 850 25.1 7.4 45.3 69 2.1 35.8 7.77 0.306
03:36 1021 30.15 850 25.1 7.4 45.3 69 2.2 35.9 7.77 0.306
03:37 1021 30.15 850 25.1 7.4 45.4 70 2.3 36.1 7.81 0.307
03:38 1021 30.15 850 25.1 7.4 45.4 70 2.4 36.3 7.79 0.307
03:39 1021 30.15 850 25.1 7.4 45.3 71 2.5 36.5 7.82 0.308
03:40 1021 30.15 850 25.1 7.3 45.2 71 2.5 36.5 7.75 0.305
03:41 1021 30.15 850 25.1 7.3 45.1 71 2.4 36.4 7.74 0.305
03:42 1021 30.15 850 25.1 7.3 45.2 71 2.5 36.5 7.72 0.304
03:43 1021 30.15 850 25.1 7.2 45 71 2.4 36.3 7.7 0.303
03:44 1021 30.15 850 25.1 7.2 45 71 2.4 36.2 7.68 0.302
03:45 1021 30.15 850 25.1 7.3 45.1 71 2.4 36.3 7.66 0.302
03:46 1021 30.15 850 25.1 7.3 45.1 71 2.3 36.2 7.66 0.302
03:47 1021 30.15 850 25.1 7.2 45 71 2.4 36.3 7.65 0.301
03:48 1021 30.15 850 25.1 7.2 45 71 2.4 36.2 7.62 0.3
03:49 1021 30.15 850 25.1 7.2 44.9 71 2.4 36.3 7.62 0.3
03:50 1021 30.15 850 25.1 7.2 44.9 71 2.3 36.1 7.57 0.298
03:51 1021 30.15 850 25.1 7.2 44.9 71 2.3 36.2 7.53 0.296
03:52 1021 30.15 850 25.1 7.1 44.8 72 2.3 36.2 7.52 0.296
03:53 1021 30.15 850 25.1 7.1 44.7 72 2.3 36.2 7.52 0.296
03:54 1021 30.15 850 25.1 7.1 44.7 72 2.4 36.3 7.44 0.293
03:55 1021 30.15 850 25.1 7 44.6 72 2.4 36.3 7.44 0.293
03:56 1021 30.15 850 25.1 7 44.5 73 2.6 36.6 7.36 0.29
03:57 1021 30.15 850 25.1 6.8 44.3 74 2.5 36.5 7.32 0.288
03:58 1021 30.15 850 25.1 6.7 44.1 74 2.4 36.3 7.14 0.281
03:59 1021 30.15 850 25.1 6.6 43.9 74 2.4 36.3 7.01 0.276
04:00 1021 30.15 850 25.1 6.5 43.7 74 2.3 36.1 6.906 0.272
04:01 1021 30.15 850 25.1 6.4 43.6 74 2.2 35.9 6.822 0.269
04:02 1021 30.15 850 25.1 6.4 43.5 74 2.1 35.8 6.799 0.268
04:03 1021 30.15 850 25.1 6.3 43.4 74 2 35.6 6.737 0.265
04:04 1021 30.15 850 25.1 6.3 43.4 74 2 35.7 6.697 0.264
04:05 1021 30.15 850 25.1 6.3 43.4 74 2.1 35.7 6.692 0.263
04:06 1021 30.15 850 25.1 6.3 43.3 75 2.1 35.8 6.652 0.262
04:07 1021 30.15 850 25.1 6.3 43.3 74 2 35.6 6.607 0.26
04:08 1021 30.15 850 25.1 6.2 43.2 74 2 35.5 6.595 0.26
04:09 1021 30.15 850 25.1 6.2 43.2 74 2 35.7 6.601 0.26
04:10 1021 30.15 850 25.1 6.2 43.1 74 1.9 35.5 6.556 0.258
04:11 1021 30.15 850 25.1 6.2 43.2 74 1.9 35.3 6.567 0.259
04:12 1021 30.15 850 25.1 6.2 43.2 74 1.9 35.5 6.59 0.259
04:13 1021 30.15 850 25.1 6.2 43.2 74 2 35.6 6.567 0.259
04:14 1021 30.15 850 25.1 6.1 42.9 75 1.9 35.4 6.443 0.254
04:15 1021 30.15 850 25.1 5.9 42.7 75 1.9 35.3 6.335 0.249
04:16 1021 30.15 850 25.1 5.8 42.5 75 1.8 35.3 6.233 0.245
04:17 1021 30.15 850 25.1 5.7 42.2 76 1.8 35.2 6.064 0.239
04:18 1021 30.15 850 25.1 5.6 42.1 77 1.8 35.3 6.019 0.237
04:19 1021 30.15 850 25.1 5.5 41.9 77 1.8 35.3 5.917 0.233
04:20 1021 30.15 850 25.1 5.5 41.9 77 1.8 35.3 5.888 0.232
04:21 1021 30.15 850 25.1 5.5 41.9 77 1.8 35.2 5.905 0.232
04:22 1021 30.15 850 25.1 5.6 42 76 1.7 35.1 5.905 0.232
04:23 1021 30.15 850 25.1 5.5 41.8 76 1.6 34.9 5.877 0.231
04:24 1021 30.15 850 25.1 5.3 41.5 77 1.6 34.8 5.747 0.226
04:25 1021 30.15 850 25.1 5.2 41.3 77 1.5 34.7 5.6 0.22
04:26 1021 30.15 850 25.1 5.1 41.2 77 1.4 34.6 5.504 0.217
04:27 1021 30.15 850 25.1 5.1 41.2 77 1.4 34.6 5.47 0.215
04:28 1021 30.15 850 25.1 5.1 41.2 77 1.4 34.6 5.442 0.214
04:29 1021 30.15 850 25.1 5 41.1 77 1.3 34.4 5.413 0.213
04:30 1021 30.15 850 25.1 4.9 40.9 77 1.3 34.3 5.368 0.211
04:31 1021 30.15 850 25.1 4.9 40.8 78 1.3 34.4 5.295 0.208
04:32 1021 30.15 850 25.1 5 40.9 77 1.3 34.4 5.351 0.211
04:33 1021 30.15 850 25.1 5 40.9 77 1.3 34.4 5.323 0.21
04:34 1021 30.15 850 25.1 4.9 40.9 78 1.4 34.4 5.317 0.209
04:35 1021 30.15 850 25.1 4.9 40.9 78 1.3 34.4 5.334 0.21
04:36 1021 30.15 850 25.1 5 41 77 1.4 34.5 5.352 0.211
04:37 1021 30.15 850 25.1 5 41.1 77 1.4 34.5 5.392 0.212
04:38 1021 30.15 850 25.1 5.1 41.1 77 1.3 34.4 5.443 0.214
04:39 1021 30.15 850 25.1 5.1 41.3 77 1.4 34.5 5.484 0.216
04:40 1021 30.15 850 25.1 5.1 41.3 77 1.4 34.5 5.478 0.216
04:41 1021 30.15 850 25.1 5.1 41.2 77 1.4 34.5 5.439 0.214
04:42 1021 30.15 850 25.1 5 41.1 78 1.5 34.6 5.445 0.214
04:43 1021 30.15 850 25.1 5 40.9 79 1.6 34.8 5.332 0.21
04:44 1021 30.15 850 25.1 4.8 40.7 80 1.6 34.9 5.219 0.205
04:45 1021 30.15 850 25.1 4.7 40.5 81 1.7 35 5.124 0.202
04:46 1021 30.15 850 25.1 4.6 40.3 81 1.6 34.9 5.067 0.199
04:47 1021 30.15 850 25.1 4.6 40.3 81 1.7 35 5.033 0.198
04:48 1021 30.15 850 25.1 4.5 40.2 82 1.7 35 4.977 0.196
04:49 1021 30.15 850 25.1 4.4 40 83 1.8 35.2 4.853 0.191
04:50 1021 30.15 850 25.1 4.3 39.8 84 1.8 35.2 4.78 0.188
04:51 1021 30.15 850 25.1 4.3 39.7 84 1.8 35.3 4.719 0.186
04:52 1021 30.15 850 25.1 4.3 39.8 84 1.9 35.4 4.77 0.188
04:53 1021 30.15 850 25.1 4.4 39.9 84 1.9 35.4 4.81 0.189
04:54 1021 30.15 850 25.1 4.5 40 84 2 35.5 4.868 0.192
04:55 1021 30.15 850 25.1 4.5 40.1 84 2 35.6 4.924 0.194
04:56 1021 30.15 850 25.1 4.6 40.2 83 2 35.6 4.959 0.195
04:57 1021 30.15 850 25.1 4.6 40.3 83 2 35.7 4.994 0.197
04:58 1021 30.15 850 25.1 4.6 40.3 83 2 35.7 5.028 0.198
04:59 1021 30.15 850 25.1 4.7 40.4 83 2 35.6 5.073 0.2
05:00 1021 30.15 850 25.1 4.7 40.4 83 2 35.6 5.051 0.199
05:01 1021 30.15 850 25.1 4.7 40.4 83 2 35.5 5.08 0.2
05:02 1021 30.15 850 25.1 4.7 40.4 83 2 35.6 5.069 0.2
05:03 1021 30.15 850 25.1 4.7 40.5 83 2.1 35.8 5.137 0.202
05:04 1021 30.15 850 25.1 4.7 40.4 83 2 35.6 5.092 0.2
05:05 1021 30.15 850 25.1 4.6 40.4 82 1.9 35.4 4.985 0.196
05:06 1021 30.15 850 25.1 4.6 40.2 83 1.9 35.4 4.962 0.195
05:07 1021 30.15 850 25.1 4.5 40.1 83 1.9 35.4 4.928 0.194
05:08 1021 30.15 850 25.1 4.4 40 83 1.9 35.3 4.821 0.19
05:09 1021 30.15 850 25.1 4.3 39.8 84 1.8 35.3 4.787 0.188
05:10 1021 30.15 850 25.1 4.3 39.7 84 1.8 35.3 4.669 0.184
05:11 1021 30.15 850 25.1 4.2 39.5 84 1.8 35.2 4.59 0.181
05:12 1021 30.15 850 25.1 4.1 39.3 85 1.7 35.1 4.511 0.178
05:13 1021 30.15 850 25.1 4 39.3 85 1.7 35 4.465 0.176
05:14 1021 30.15 850 25.1 4 39.3 84 1.6 34.9 4.437 0.175
05:15 1021 30.15 850 25.1 4.1 39.3 84 1.6 34.8 4.403 0.173
05:16 1021 30.15 850 25.1 4 39.3 83 1.4 34.5 4.409 0.174
05:17 1021 30.15 850 25.1 4 39.2 83 1.4 34.6 4.37 0.172
05:18 1021 30.15 850 25.1 3.9 39 84 1.4 34.5 4.274 0.168
05:19 1021 30.15 850 25.1 3.8 38.9 84 1.3 34.4 4.228 0.166
05:20 1021 30.15 850 25.1 3.8 38.8 84 1.3 34.4 4.127 0.162
05:21 1021 30.15 850 25.1 3.8 38.8 83 1.2 34.1 4.11 0.162
05:22 1021 30.15 850 25.1 3.6 38.5 83 1 33.9 3.968 0.156
05:23 1021 30.15 850 25.1 3.4 38.2 84 1 33.8 3.81 0.15
05:24 1021 30.15 850 25.1 3.3 37.9 84 0.8 33.4 3.629 0.143
05:25 1021 30.15 850 25.1 3.1 37.6 84 0.7 33.2 3.471 0.137
05:26 1021 30.15 850 25.1 3 37.3 85 0.7 33.3 3.341 0.132
05:27 1021 30.15 850 25.1 2.9 37.2 85 0.7 33.3 3.324 0.131
05:28 1021 30.15 850 25.1 3 37.4 85 0.7 33.3 3.341 0.132
05:29 1021 30.15 850 25.1 3 37.5 84 0.7 33.2 3.369 0.133
05:30 1021 30.15 851 25.13 3.1 37.5 84 0.6 33 3.369 0.133
05:31 1021 30.15 851 25.13 3 37.5 84 0.5 32.9 3.352 0.132
05:32 1021 30.15 851 25.13 2.9 37.3 85 0.6 33.1 3.267 0.129
05:33 1021 30.15 851 25.13 2.9 37.2 86 0.7 33.3 3.284 0.129
05:34 1021 30.15 851 25.13 3.1 37.5 85 0.7 33.3 3.38 0.133
05:35 1021 30.15 851 25.13 3.2 37.8 83 0.6 33.1 3.505 0.138
05:36 1021 30.15 851 25.13 3.2 37.7 82 0.5 32.8 3.55 0.14
05:37 1021 30.15 851 25.13 3.1 37.6 83 0.4 32.7 3.403 0.134
05:38 1021 30.15 851 25.13 3 37.4 83 0.3 32.5 3.318 0.131
05:39 1021 30.15 851 25.13 2.8 37 83 0.2 32.3 3.171 0.125
05:40 1021 30.15 851 25.13 2.6 36.7 84 0.2 32.3 2.979 0.117
05:41 1021 30.15 851 25.13 2.4 36.3 84 -0 32 2.77 0.109
05:42 1021 30.15 851 25.13 2.2 36 85 -0.1 31.8 2.589 0.102
05:43 1021 30.15 851 25.13 2 35.6 85 -0.2 31.6 2.402 0.095
05:44 1021 30.15 851 25.13 1.9 35.3 87 -0.2 31.7 2.266 0.089
05:45 1021 30.15 851 25.13 1.8 35.2 86 -0.3 31.5 2.181 0.086
05:46 1021 30.15 851 25.13 1.7 35 86 -0.4 31.2 2.068 0.081
05:47 1021 30.15 851 25.13 1.5 34.7 87 -0.5 31.2 1.927 0.076
05:48 1021 30.15 851 25.13 1.4 34.4 88 -0.5 31.2 1.819 0.072
05:49 1021 30.15 851 25.13 1.3 34.3 88 -0.5 31.2 1.679 0.066
05:50 1021 30.15 851 25.13 1.2 34.1 89 -0.5 31.1 1.606 0.063
05:51 1021 30.15 851 25.13 1.1 34 89 -0.4 31.2 1.583 0.062
05:52 1021 30.15 851 25.13 1.1 33.9 89 -0.5 31.1 1.533 0.06
05:53 1021 30.15 851 25.13 1.1 33.9 90 -0.4 31.3 1.499 0.059
05:54 1021 30.15 851 25.13 1.1 34 90 -0.4 31.3 1.522 0.06
05:55 1021 30.15 851 25.13 1.2 34.1 90 -0.2 31.6 1.585 0.062
05:56 1021 30.15 851 25.13 1.3 34.3 89 -0.3 31.4 1.647 0.065
05:57 1021 30.15 851 25.13 1.2 34.2 89 -0.4 31.3 1.647 0.065
05:58 1021 30.15 851 25.13 1.2 34.2 89 -0.3 31.4 1.62 0.064
05:59 1021 30.15 851 25.13 1.2 34.1 89 -0.4 31.3 1.597 0.063
06:00 1021 30.15 851 25.13 1.1 34 90 -0.4 31.3 1.524 0.06
06:01 1022 30.18 851 25.13 1.1 33.9 90 -0.3 31.4 1.496 0.059
06:02 1022 30.18 851 25.13 1 33.9 91 -0.3 31.4 1.502 0.059
06:03 1022 30.18 851 25.13 1.1 33.9 91 -0.3 31.5 1.485 0.058
06:04 1022 30.18 851 25.13 1.1 34.1 91 -0.2 31.6 1.56 0.061
06:05 1022 30.18 851 25.13 1.3 34.3 91 -0.1 31.8 1.679 0.066
06:06 1022 30.18 851 25.13 1.4 34.5 90 -0 32 1.769 0.07
06:07 1022 30.18 851 25.13 1.5 34.8 90 0.1 32.1 1.901 0.075
06:08 1022 30.18 851 25.13 1.6 34.9 89 0.1 32.1 1.986 0.078
06:09 1022 30.18 851 25.13 1.7 35.1 89 0.1 32.3 2.11 0.083
06:10 1022 30.18 851 25.13 1.9 35.3 89 0.2 32.3 2.219 0.087
06:11 1022 30.18 851 25.13 1.9 35.5 88 0.1 32.3 2.327 0.092
06:12 1022 30.18 851 25.13 2 35.6 88 0.2 32.3 2.372 0.093
06:13 1022 30.18 851 25.13 2 35.7 88 0.2 32.4 2.39 0.094
06:14 1022 30.18 851 25.13 2.1 35.8 87 0.3 32.5 2.492 0.098
06:15 1022 30.18 851 25.13 2.1 35.8 87 0.2 32.3 2.503 0.099
06:16 1022 30.18 851 25.13 2.2 35.9 87 0.2 32.3 2.515 0.099
06:17 1022 30.18 851 25.13 2.2 36 86 0.2 32.3 2.566 0.101
06:18 1022 30.18 851 25.13 2.2 36 86 0.1 32.3 2.527 0.099
06:19 1022 30.18 851 25.13 2.2 35.9 86 0.1 32.2 2.55 0.1
06:20 1022 30.18 851 25.13 2.2 35.9 86 0.1 32.3 2.522 0.099
06:21 1022 30.18 851 25.13 2.2 36 86 0.1 32.2 2.584 0.102
06:22 1022 30.18 851 25.13 2.2 36 86 0.1 32.2 2.573 0.101
06:23 1022 30.18 851 25.13 2.3 36.1 86 0.1 32.2 2.613 0.103
06:24 1022 30.18 851 25.13 2.3 36.1 85 0.1 32.1 2.63 0.104
06:25 1022 30.18 851 25.13 2.3 36.2 85 0 32.1 2.647 0.104
06:26 1022 30.18 851 25.13 2.3 36.2 84 -0 32 2.681 0.106
06:27 1022 30.18 851 25.13 2.3 36.2 84 -0.1 31.9 2.687 0.106
06:28 1022 30.18 851 25.13 2.4 36.2 84 -0.1 31.9 2.726 0.107
06:29 1022 30.18 851 25.13 2.4 36.2 84 -0.1 31.8 2.726 0.107
06:30 1022 30.18 851 25.13 2.3 36.2 84 -0.1 31.8 2.715 0.107
06:31 1022 30.18 851 25.13 2.4 36.2 84 -0.1 31.8 2.715 0.107
06:32 1022 30.18 851 25.13 2.3 36.2 84 -0.1 31.8 2.704 0.106
06:33 1022 30.18 851 25.13 2.3 36.1 84 -0.1 31.8 2.704 0.106
06:34 1022 30.18 851 25.13 2.3 36.2 84 -0.1 31.8 2.721 0.107
06:35 1022 30.18 851 25.13 2.4 36.4 84 -0.1 31.9 2.761 0.109
06:36 1022 30.18 851 25.13 2.5 36.4 83 -0.1 31.8 2.767 0.109
06:37 1022 30.18 851 25.13 2.4 36.4 84 -0.1 31.9 2.812 0.111
06:38 1022 30.18 851 25.13 2.5 36.5 83 -0.1 31.9 2.829 0.111
06:39 1022 30.18 851 25.13 2.5 36.5 83 -0.1 31.9 2.886 0.114
06:40 1022 30.18 851 25.13 2.6 36.7 83 -0 31.9 2.942 0.116
06:41 1022 30.18 851 25.13 2.6 36.7 83 -0 31.9 2.948 0.116
06:42 1022 30.18 851 25.13 2.6 36.7 83 -0 32 2.976 0.117
06:43 1022 30.18 851 25.13 2.6 36.6 83 -0 31.9 2.931 0.115
06:44 1022 30.18 851 25.13 2.6 36.6 83 -0 32 2.931 0.115
06:45 1022 30.18 851 25.13 2.5 36.6 83 -0.1 31.9 2.937 0.116
06:46 1022 30.18 851 25.13 2.5 36.5 83 -0 31.9 2.892 0.114
06:47 1022 30.18 851 25.13 2.5 36.5 83 -0.1 31.8 2.88 0.113
06:48 1022 30.18 851 25.13 2.5 36.5 83 -0.1 31.8 2.863 0.113
06:49 1022 30.18 851 25.13 2.5 36.5 83 -0.1 31.8 2.863 0.113
06:50 1022 30.18 851 25.13 2.4 36.4 83 -0.2 31.7 2.829 0.111
06:51 1022 30.18 851 25.13 2.4 36.3 83 -0.2 31.6 2.773 0.109
06:52 1022 30.18 851 25.13 2.4 36.3 83 -0.2 31.6 2.756 0.109
06:53 1022 30.18 851 25.13 2.3 36.2 83 -0.2 31.6 2.733 0.108
06:54 1022 30.18 851 25.13 2.3 36.1 83 -0.2 31.6 2.665 0.105
06:55 1022 30.18 851 25.13 2.2 36 83 -0.3 31.4 2.62 0.103
06:56 1022 30.18 851 25.13 2.1 35.7 84 -0.4 31.3 2.501 0.098
06:57 1022 30.18 851 25.13 2 35.6 83 -0.5 31 2.405 0.095
06:58 1022 30.18 851 25.13 1.9 35.4 84 -0.6 30.9 2.298 0.09
06:59 1022 30.18 851 25.13 1.8 35.2 84 -0.6 30.9 2.15 0.085
07:00 1022 30.18 851 25.13 1.7 35.1 85 -0.6 30.9 2.083 0.082
07:01 1022 30.18 851 25.13 1.7 35 85 -0.6 30.9 2.054 0.081
07:02 1022 30.18 851 25.13 1.6 34.9 86 -0.6 31 2.026 0.08
07:03 1022 30.18 851 25.13 1.6 34.9 86 -0.5 31.1 1.992 0.078
07:04 1022 30.18 851 25.13 1.6 34.9 86 -0.5 31.1 1.998 0.079
07:05 1022 30.18 851 25.13 1.6 34.8 86 -0.5 31 1.958 0.077
07:06 1022 30.18 851 25.13 1.6 34.8 86 -0.5 31.2 1.926 0.076
07:07 1022 30.18 851 25.13 1.6 34.9 86 -0.4 31.2 1.999 0.079
07:08 1022 30.18 851 25.13 1.6 34.9 86 -0.5 31.2 2.016 0.079
07:09 1022 30.18 851 25.13 1.6 34.9 86 -0.4 31.3 2.057 0.081
07:10 1022 30.18 851 25.13 1.7 35.1 87 -0.3 31.5 2.164 0.085
07:11 1022 30.18 851 25.13 1.9 35.4 86 -0.2 31.6 2.329 0.092
07:12 1022 30.18 851 25.13 2.1 35.7 85 -0.2 31.6 2.454 0.097
07:13 1022 30.18 851 25.13 2.1 35.9 84 -0.2 31.6 2.55 0.1
07:14 1022 30.18 851 25.13 2.2 35.9 84 -0.3 31.5 2.635 0.104
07:15 1022 30.18 851 25.13 2.3 36.1 84 -0.2 31.6 2.67 0.105
07:16 1022 30.18 851 25.13 2.2 36 84 -0.2 31.6 2.704 0.106
07:17 1022 30.18 851 25.13 2.3 36.2 84 -0.1 31.7 2.715 0.107
07:18 1022 30.18 851 25.13 2.3 36.2 84 -0.1 31.7 2.772 0.109
07:19 1022 30.18 851 25.13 2.3 36.2 84 -0.1 31.7 2.801 0.11
07:20 1022 30.18 851 25.13 2.4 36.2 84 -0 31.9 2.84 0.112
07:21 1022 30.18 852 25.16 2.4 36.4 84 -0 32 2.914 0.115
07:22 1022 30.18 852 25.16 2.4 36.4 84 0.1 32.2 2.909 0.115
07:23 1022 30.18 852 25.16 2.5 36.4 85 0.1 32.2 2.943 0.116
07:24 1022 30.18 852 25.16 2.5 36.5 85 0.2 32.3 2.932 0.115
07:25 1022 30.18 852 25.16 2.5 36.5 85 0.2 32.4 3.033 0.119
07:26 1022 30.18 852 25.16 2.5 36.6 85 0.2 32.4 3.039 0.12
07:27 1022 30.18 852 25.16 2.5 36.4 85 0.2 32.3 3.028 0.119
07:28 1022 30.18 852 25.16 2.3 36.2 85 0.1 32.2 2.898 0.114
07:29 1022 30.18 852 25.16 2.3 36.1 85 0.1 32.2 2.847 0.112
07:30 1023 30.21 852 25.16 2.3 36.2 85 0.1 32.2 2.87 0.113
07:31 1023 30.21 852 25.16 2.5 36.4 85 0.2 32.3 2.926 0.115
07:32 1023 30.21 852 25.16 2.5 36.6 85 0.3 32.5 3.04 0.12
07:33 1023 30.21 852 25.16 2.6 36.6 85 0.3 32.5 3.074 0.121
07:34 1023 30.21 852 25.16 2.7 36.8 83 0.1 32.3 3.159 0.124
07:35 1023 30.21 852 25.16 2.9 37.1 83 0.2 32.4 3.329 0.131
07:36 1023 30.21 852 25.16 2.9 37.3 82 0.2 32.4 3.425 0.135
07:37 1023 30.21 852 25.16 3.1 37.5 82 0.3 32.6 3.544 0.14
07:38 1023 30.21 852 25.16 3.2 37.7 82 0.4 32.7 3.623 0.143
07:39 1023 30.21 852 25.16 3.3 37.9 82 0.5 32.8 3.753 0.148
07:40 1023 30.21 852 25.16 3.4 38.1 82 0.6 33.1 3.833 0.151
07:41 1023 30.21 852 25.16 3.4 38.2 82 0.6 33.1 3.912 0.154
07:42 1023 30.21 852 25.16 3.5 38.3 82 0.7 33.3 3.952 0.156
07:43 1023 30.21 852 25.16 3.6 38.4 81 0.7 33.2 4.008 0.158
07:44 1023 30.21 852 25.16 3.6 38.6 81 0.7 33.2 4.093 0.161
07:45 1023 30.21 852 25.16 3.7 38.7 81 0.7 33.3 4.178 0.164
07:46 1023 30.21 852 25.16 3.8 38.8 81 0.8 33.4 4.28 0.169
07:47 1023 30.21 852 25.16 3.9 39 80 0.8 33.5 4.346 0.171
07:48 1023 30.21 852 25.16 4 39.2 81 0.9 33.7 4.448 0.175
07:49 1023 30.21 852 25.16 4 39.3 80 1 33.8 4.533 0.178
07:50 1023 30.21 852 25.16 4.1 39.5 81 1.1 34 4.596 0.181
07:51 1023 30.21 852 25.16 4.2 39.6 81 1.2 34.1 4.698 0.185
07:52 1023 30.21 852 25.16 4.3 39.7 80 1.1 34 4.737 0.186
07:53 1023 30.21 852 25.16 4.4 39.9 79 1.1 34.1 4.845 0.191
07:54 1023 30.21 852 25.16 4.5 40.1 79 1.2 34.2 4.964 0.195
07:55 1023 30.21 852 25.16 4.6 40.3 79 1.4 34.5 5.071 0.2
07:56 1023 30.21 852 25.16 4.7 40.4 80 1.5 34.6 5.133 0.202
07:57 1023 30.21 852 25.16 4.7 40.5 79 1.4 34.6 5.206 0.205
07:58 1023 30.21 852 25.16 4.8 40.7 80 1.6 34.9 5.29 0.208
07:59 1023 30.21 852 25.16 4.9 40.7 80 1.7 35 5.358 0.211
08:00 1023 30.21 852 25.16 5 41 80 1.8 35.2 5.443 0.214
08:01 1023 30.21 852 25.16 5.1 41.1 79 1.8 35.2 5.527 0.218
08:02 1023 30.21 852 25.16 5.2 41.3 79 1.8 35.3 5.634 0.222
08:03 1023 30.21 852 25.16 5.2 41.4 79 1.9 35.4 5.725 0.225
08:04 1023 30.21 852 25.16 5.4 41.7 80 2.2 35.9 5.826 0.229
08:05 1023 30.21 852 25.16 5.5 41.9 80 2.3 36.2 5.962 0.235
08:06 1023 30.21 852 25.16 5.6 42.1 78 2 35.6 6.069 0.239
08:07 1023 30.21 852 25.16 5.7 42.3 77 2 35.6 6.171 0.243
08:08 1023 30.21 852 25.16 5.8 42.5 77 2.2 35.9 6.256 0.246
08:09 1023 30.21 852 25.16 6 42.7 76 2 35.6 6.352 0.25
08:10 1023 30.21 852 25.16 6 42.9 76 2.2 35.9 6.465 0.255
08:11 1023 30.21 852 25.16 6.2 43.1 75 2.1 35.8 6.617 0.261
08:12 1023 30.21 852 25.16 6.3 43.3 73 1.8 35.3 6.708 0.264
08:13 1023 30.21 852 25.16 6.4 43.6 73 2 35.5 6.804 0.268
08:14 1023 30.21 852 25.16 6.5 43.8 74 2.2 35.9 6.917 0.272
08:15 1023 30.21 852 25.16 6.7 44 72 1.9 35.5 7.02 0.276
08:16 1023 30.21 852 25.16 6.8 44.2 71 1.8 35.3 7.13 0.281
08:17 1023 30.21 852 25.16 6.9 44.4 73 2.5 36.4 7.25 0.285
08:18 1023 30.21 852 25.16 7 44.6 72 2.3 36.2 7.38 0.291
08:19 1023 30.21 852 25.16 7.1 44.7 72 2.4 36.3 7.49 0.295
08:20 1023 30.21 852 25.16 7.2 44.9 72 2.5 36.6 7.58 0.298
08:21 1023 30.21 852 25.16 7.3 45.2 70 2.2 35.9 7.72 0.304
08:22 1023 30.21 852 25.16 7.4 45.4 70 2.3 36.1 7.8 0.307
08:23 1023 30.21 852 25.16 7.5 45.5 69 2.2 36 7.91 0.311
08:24 1023 30.21 852 25.16 7.6 45.7 69 2.3 36.1 7.99 0.315
08:25 1023 30.21 852 25.16 7.7 45.9 71 2.9 37.2 8.1 0.319
08:26 1023 30.21 852 25.16 7.8 46 66 1.9 35.5 8.16 0.321
08:27 1023 30.21 852 25.16 7.9 46.1 66 1.9 35.4 8.18 0.322
08:28 1023 30.21 852 25.16 7.9 46.2 66 2 35.5 8.26 0.325
08:29 1023 30.21 852 25.16 7.9 46.2 66 2 35.6 8.28 0.326
08:30 1023 30.21 852 25.16 7.9 46.3 65 1.8 35.2 8.32 0.328
08:31 1023 30.21 852 25.16 8 46.4 65 1.9 35.4 8.42 0.331
08:32 1023 30.21 852 25.16 8.1 46.6 63 1.6 34.8 8.5 0.335
08:33 1023 30.21 852 25.16 8.1 46.7 64 1.7 35 8.52 0.335
08:34 1023 30.21 852 25.16 8.2 46.8 64 1.9 35.4 8.56 0.337
08:35 1023 30.21 852 25.16 8.3 46.9 66 2.2 36 8.66 0.341
08:36 1023 30.21 852 25.16 8.3 47 61 1.2 34.2 8.74 0.344
08:37 1023 30.21 852 25.16 8.3 47 61 1.4 34.5 8.7 0.343
08:38 1023 30.21 852 25.16 8.3 47 62 1.5 34.8 8.72 0.343
08:39 1023 30.21 853 25.19 8.4 47 61 1.4 34.5 8.78 0.346
08:40 1023 30.21 852 25.16 8.4 47.2 62 1.5 34.7 8.81 0.347
08:41 1023 30.21 852 25.16 8.4 47.2 61 1.4 34.6 8.79 0.346
08:42 1023 30.21 852 25.16 8.5 47.2 64 2 35.6 8.88 0.35
08:43 1023 30.21 852 25.16 8.5 47.2 61 1.5 34.7 8.91 0.351
08:44 1023 30.21 852 25.16 8.5 47.3 61 1.5 34.6 8.95 0.352
08:45 1023 30.21 853 25.19 8.6 47.4 60 1.3 34.3 8.99 0.354
08:46 1023 30.21 852 25.16 8.6 47.5 63 2.1 35.7 9.02 0.355
08:47 1023 30.21 853 25.19 8.7 47.6 61 1.6 34.9 9.09 0.358
08:48 1023 30.21 852 25.16 8.7 47.6 63 2.2 35.9 9.16 0.361
08:49 1023 30.21 852 25.16 8.8 47.8 61 1.7 35.1 9.21 0.363
08:50 1023 30.21 852 25.16 8.8 47.9 60 1.5 34.7 9.22 0.363
08:51 1023 30.21 853 25.19 8.9 48 59 1.4 34.5 9.3 0.366
08:52 1023 30.21 853 25.19 8.9 48.1 59 1.4 34.5 9.35 0.368
08:53 1023 30.21 852 25.16 8.9 48.1 59 1.4 34.6 9.37 0.369
08:54 1023 30.21 853 25.19 9 48.1 59 1.4 34.6 9.41 0.37
08:55 1023 30.21 853 25.19 9.1 48.3 63 2.4 36.4 9.52 0.375
08:56 1023 30.21 853 25.19 9.1 48.4 56 0.9 33.5 9.6 0.378
08:57 1023 30.21 853 25.19 9.1 48.4 58 1.4 34.4 9.55 0.376
08:58 1023 30.21 852 25.16 9.1 48.4 54 0.4 32.7 9.53 0.375
08:59 1023 30.21 852 25.16 9.1 48.3 58 1.2 34.1 9.51 0.374
09:00 1023 30.21 852 25.16 9.1 48.4 60 1.9 35.5 9.59 0.378
09:01 1023 30.21 853 25.19 9.3 48.7 60 1.9 35.4 9.69 0.381
09:02 1023 30.21 852 25.16 9.3 48.8 57 1.2 34.1 9.77 0.385
09:03 1023 30.21 853 25.19 9.4 48.9 57 1.2 34.2 9.8 0.386
09:04 1023 30.21 853 25.19 9.4 48.9 58 1.5 34.7 9.82 0.387
09:05 1023 30.21 853 25.19 9.4 48.9 56 1.1 34 9.8 0.386
09:06 1023 30.21 853 25.19 9.4 48.9 57 1.4 34.5 9.78 0.385
09:07 1023 30.21 853 25.19 9.4 49 55 0.9 33.6 9.82 0.387
09:08 1023 30.21 853 25.19 9.5 49 59 1.9 35.5 9.88 0.389
09:09 1023 30.21 853 25.19 9.6 49.2 63 2.9 37.1 9.99 0.393
09:10 1023 30.21 853 25.19 9.7 49.4 61 2.5 36.4 10.09 0.397
09:11 1023 30.21 853 25.19 9.7 49.5 57 1.7 35.1 10.14 0.399
09:12 1023 30.21 853 25.19 9.8 49.6 56 1.4 34.6 10.23 0.403
09:13 1023 30.21 853 25.19 9.8 49.6 55 1.1 34.1 10.2 0.402
09:14 1023 30.21 853 25.19 9.7 49.5 54 0.9 33.6 10.11 0.398
09:15 1023 30.21 853 25.19 9.7 49.4 54 0.9 33.6 10.05 0.396
09:16 1023 30.21 853 25.19 9.7 49.4 53 0.7 33.3 10.01 0.394
09:17 1023 30.21 853 25.19 9.7 49.4 58 1.8 35.2 10.04 0.395
09:18 1023 30.21 853 25.19 9.8 49.6 57 1.8 35.2 10.16 0.4
09:19 1023 30.21 853 25.19 9.8 49.7 55 1.2 34.2 10.22 0.402
09:20 1023 30.21 853 25.19 9.9 49.8 53 0.7 33.3 10.24 0.403
09:21 1023 30.21 853 25.19 9.8 49.6 54 0.9 33.5 10.2 0.402
09:22 1023 30.21 853 25.19 9.8 49.7 58 2 35.6 10.24 0.403
09:23 1023 30.21 853 25.19 9.9 49.8 56 1.6 34.9 10.3 0.406
09:24 1023 30.21 853 25.19 9.9 49.8 58 2.1 35.7 10.3 0.406
09:25 1024 30.24 853 25.19 9.9 49.9 54 1.2 34.1 10.38 0.409
09:26 1024 30.24 853 25.19 10 49.9 57 1.9 35.4 10.38 0.409
09:27 1024 30.24 853 25.19 10 50 57 1.9 35.4 10.32 0.406
09:28 1024 30.24 853 25.19 10 49.9 54 1.2 34.2 10.35 0.407
09:29 1024 30.24 853 25.19 10 50 54 1.2 34.1 10.42 0.41
09:30 1024 30.24 853 25.19 10 50 55 1.5 34.6 10.39 0.409
09:31 1024 30.24 853 25.19 10 50 55 1.3 34.4 10.41 0.41
09:32 1024 30.24 853 25.19 10 50 54 1.2 34.1 10.44 0.411
09:33 1024 30.24 853 25.19 10 50.1 57 2 35.6 10.46 0.412
09:34 1024 30.24 853 25.19 10.2 50.3 53 1.1 34 10.56 0.416
09:35 1024 30.24 853 25.19 10.3 50.5 56 1.8 35.3 10.62 0.418
09:36 1024 30.24 853 25.19 10.3 50.6 50 0.3 32.6 10.59 0.417
09:37 1024 30.24 853 25.19 10.3 50.5 54 1.3 34.4 10.55 0.415
09:38 1024 30.24 853 25.19 10.3 50.5 53 1.1 33.9 10.57 0.416
09:39 1023 30.21 853 25.19 10.3 50.5 52 0.8 33.5 10.58 0.417
09:40 1023 30.21 853 25.19 10.4 50.7 57 2.2 36 10.66 0.42
09:41 1023 30.21 853 25.19 10.5 50.9 50 0.5 32.9 10.77 0.424
09:42 1023 30.21 853 25.19 10.5 50.9 53 1.5 34.7 10.72 0.422
09:43 1023 30.21 853 25.19 10.5 50.9 50 0.6 33.2 10.75 0.423
09:44 1023 30.21 853 25.19 10.4 50.8 52 0.9 33.7 10.76 0.424
09:45 1023 30.21 853 25.19 10.5 50.8 52 1.1 34 10.79 0.425
09:46 1024 30.24 853 25.19 10.6 51.1 53 1.5 34.7 10.92 0.43
09:47 1024 30.24 853 25.19 10.7 51.2 57 2.6 36.6 10.86 0.428
09:48 1023 30.21 853 25.19 10.8 51.4 49 0.6 33.1 10.94 0.431
09:49 1023 30.21 853 25.19 10.8 51.5 49 0.7 33.3 10.97 0.432
09:50 1023 30.21 853 25.19 10.8 51.5 49 0.7 33.2 10.98 0.432
09:51 1024 30.24 853 25.19 10.8 51.4 49 0.6 33.1 11.01 0.433
09:52 1023 30.21 853 25.19 10.7 51.3 52 1.3 34.4 10.98 0.432
09:53 1024 30.24 853 25.19 10.8 51.4 53 1.7 35 10.98 0.432
09:54 1024 30.24 853 25.19 10.9 51.7 49 0.5 33 11.04 0.435
09:55 1024 30.24 853 25.19 10.9 51.7 53 1.8 35.3 10.98 0.432
09:56 1024 30.24 853 25.19 10.9 51.7 50 1.1 33.9 11 0.433
09:57 1024 30.24 853 25.19 11 51.7 53 1.7 35 11.01 0.433
09:58 1024 30.24 853 25.19 10.9 51.7 47 0.2 32.4 11.02 0.434
09:59 1024 30.24 853 25.19 10.9 51.7 53 1.7 35 11.06 0.435
10:00 1024 30.24 853 25.19 10.9 51.7 49 0.7 33.2 11.15 0.439
10:01 1024 30.24 853 25.19 10.9 51.6 49 0.5 33 11.09 0.437
10:02 1024 30.24 853 25.19 10.8 51.5 56 2.5 36.4 11.1 0.437
10:03 1024 30.24 853 25.19 10.9 51.6 51 1.2 34.2 11.2 0.441
10:04 1024 30.24 853 25.19 11 51.7 52 1.6 34.9 11.2 0.441
10:05 1024 30.24 853 25.19 11 51.7 49 0.8 33.4 11.17 0.44
10:06 1024 30.24 853 25.19 10.8 51.5 48 0.4 32.7 11.05 0.435
10:07 1024 30.24 853 25.19 10.8 51.4 48 0.3 32.5 10.96 0.431
10:08 1024 30.24 853 25.19 10.8 51.4 49 0.5 33 10.93 0.43
10:09 1024 30.24 853 25.19 10.8 51.5 48 0.3 32.6 10.97 0.432
10:10 1024 30.24 853 25.19 10.9 51.5 47 0 32.1 10.99 0.433
10:11 1024 30.24 853 25.19 10.9 51.5 50 1 33.8 10.98 0.432
10:12 1024 30.24 853 25.19 10.9 51.6 44 -0.7 30.7 11.03 0.434
10:13 1024 30.24 853 25.19 10.9 51.7 45 -0.4 31.3 11.09 0.437
10:14 1024 30.24 853 25.19 11 51.8 49 0.7 33.3 11.22 0.442
10:15 1024 30.24 853 25.19 11.1 52.1 45 -0.4 31.2 11.27 0.444
10:16 1024 30.24 853 25.19 11.2 52.1 43 -0.9 30.4 11.32 0.446
10:17 1024 30.24 853 25.19 11.2 52.2 47 0.3 32.6 11.38 0.448
10:18 1024 30.24 853 25.19 11.2 52.1 45 -0.1 31.8 11.4 0.449
10:19 1024 30.24 853 25.19 11.1 51.9 47 0.3 32.6 11.32 0.446
10:20 1024 30.24 853 25.19 11.1 51.9 45 -0.3 31.4 11.28 0.444
10:21 1024 30.24 853 25.19 11.2 52.2 48 0.6 33.1 11.34 0.446
10:22 1024 30.24 853 25.19 11.4 52.5 45 -0.1 31.9 11.53 0.454
10:23 1024 30.24 853 25.19 11.4 52.6 45 -0.1 31.8 11.52 0.454
10:24 1024 30.24 853 25.19 11.6 52.9 46 0.5 32.9 11.56 0.455
10:25 1024 30.24 853 25.19 11.8 53.2 41 -0.9 30.5 11.76 0.463
10:26 1024 30.24 853 25.19 11.8 53.3 44 0.2 32.3 11.73 0.462
10:27 1024 30.24 853 25.19 11.8 53.2 49 1.6 34.8 11.72 0.461
10:28 1024 30.24 853 25.19 11.7 53 49 1.3 34.3 11.8 0.465
10:29 1024 30.24 853 25.19 11.7 53.1 46 0.5 32.9 11.96 0.471
10:30 1024 30.24 853 25.19 11.7 53 50 1.7 35 11.97 0.471
10:31 1024 30.24 853 25.19 11.7 53 49 1.3 34.3 11.95 0.47
10:32 1024 30.24 853 25.19 11.6 52.8 47 0.7 33.3 11.9 0.469
10:33 1024 30.24 853 25.19 11.6 52.8 46 0.6 33 11.88 0.468
10:34 1024 30.24 853 25.19 11.5 52.7 50 1.5 34.7 11.88 0.468
10:35 1024 30.24 853 25.19 11.6 52.8 42 -0.7 30.7 11.93 0.47
10:36 1024 30.24 853 25.19 11.6 52.9 43 -0.4 31.4 11.94 0.47
10:37 1024 30.24 853 25.19 11.7 53 45 0.3 32.5 12.05 0.474
10:38 1024 30.24 853 25.19 11.9 53.4 43 -0.4 31.4 12.18 0.48
10:39 1024 30.24 853 25.19 12.1 53.7 45 0.5 32.8 12.32 0.485
10:40 1024 30.24 853 25.19 12.1 53.8 48 1.5 34.7 12.44 0.49
10:41 1023 30.21 853 25.19 12.1 53.8 45 0.6 33.1 12.38 0.487
10:42 1024 30.24 853 25.19 12.1 53.7 50 2 35.5 12.36 0.487
10:43 1023 30.21 853 25.19 12 53.7 52 2.4 36.3 12.37 0.487
10:44 1023 30.21 853 25.19 11.9 53.4 44 -0 31.9 12.25 0.482
10:45 1023 30.21 853 25.19 11.8 53.2 47 0.9 33.7 12.1 0.476
10:46 1023 30.21 853 25.19 11.7 53 44 0 32.1 12.06 0.475
10:47 1023 30.21 853 25.19 11.7 53 49 1.2 34.2 12.03 0.474
10:48 1023 30.21 853 25.19 11.8 53.2 45 0.4 32.8 12.18 0.48
10:49 1023 30.21 853 25.19 11.9 53.3 43 -0.2 31.7 12.28 0.483
10:50 1023 30.21 853 25.19 11.9 53.5 43 -0.2 31.6 12.33 0.485
10:51 1023 30.21 853 25.19 11.9 53.4 49 1.6 34.8 12.35 0.486
10:52 1023 30.21 853 25.19 12 53.6 45 0.5 32.9 12.44 0.49
10:53 1023 30.21 853 25.19 12.1 53.8 45 0.7 33.3 12.56 0.494
10:54 1023 30.21 853 25.19 12.2 53.9 52 2.5 36.6 12.64 0.498
10:55 1023 30.21 853 25.19 12.2 53.9 47 1.2 34.2 12.61 0.496
10:56 1023 30.21 853 25.19 12 53.5 47 1.1 34.1 12.43 0.489
10:57 1023 30.21 853 25.19 11.8 53.3 46 0.8 33.4 12.29 0.484
10:58 1023 30.21 853 25.19 11.7 53.1 43 -0.5 31.1 12.24 0.482
10:59 1023 30.21 853 25.19 11.7 53.1 45 0.3 32.5 12.2 0.48
11:00 1023 30.21 853 25.19 11.7 53 43 -0.4 31.3 12.22 0.481
11:01 1023 30.21 853 25.19 11.7 53.1 47 0.9 33.6 12.25 0.482
11:02 1023 30.21 853 25.19 11.8 53.2 45 0.3 32.6 12.28 0.483
11:03 1023 30.21 853 25.19 11.8 53.2 47 0.8 33.5 12.26 0.483
11:04 1023 30.21 853 25.19 11.8 53.2 43 -0.4 31.3 12.3 0.484
11:05 1023 30.21 853 25.19 11.8 53.2 50 1.7 35 12.3 0.484
11:06 1023 30.21 853 25.19 11.9 53.4 47 0.9 33.7 12.45 0.49
11:07 1023 30.21 852 25.16 12.1 53.8 49 1.8 35.3 12.59 0.496
11:08 1023 30.21 852 25.16 12.2 53.9 47 1.2 34.1 12.59 0.496
11:09 1023 30.21 852 25.16 12.2 53.9 49 1.9 35.4 12.58 0.495
11:10 1023 30.21 852 25.16 12.3 54.1 48 1.5 34.7 12.69 0.5
11:11 1023 30.21 852 25.16 12.4 54.3 45 1 33.8 12.83 0.505
11:12 1023 30.21 852 25.16 12.5 54.5 45 0.9 33.7 12.89 0.507
11:13 1023 30.21 852 25.16 12.5 54.4 52 3 37.4 12.8 0.504
11:14 1023 30.21 852 25.16 12.4 54.3 45 0.7 33.3 12.76 0.502
11:15 1023 30.21 852 25.16 12.3 54.1 47 1.3 34.4 12.75 0.502
11:16 1023 30.21 852 25.16 12.3 54.2 41 -0.4 31.2 12.81 0.504
11:17 1023 30.21 852 25.16 12.3 54.1 41 -0.7 30.8 12.77 0.503
11:18 1023 30.21 852 25.16 12.4 54.2 50 2.2 36 12.81 0.504
11:19 1023 30.21 852 25.16 12.6 54.6 48 2 35.7 13.1 0.516
11:20 1023 30.21 852 25.16 12.8 55 41 -0.2 31.6 13.23 0.521
11:21 1023 30.21 852 25.16 12.7 54.9 46 1.5 34.7 13.14 0.517
11:22 1023 30.21 852 25.16 12.6 54.7 44 0.9 33.6 13.08 0.515
11:23 1023 30.21 852 25.16 12.6 54.6 46 1.3 34.4 12.99 0.511
11:24 1023 30.21 852 25.16 12.6 54.7 48 1.9 35.5 13.1 0.516
11:25 1023 30.21 852 25.16 12.8 55.1 39 -0.6 30.9 13.22 0.52
11:26 1023 30.21 852 25.16 12.9 55.2 48 2.1 35.8 13.16 0.518
11:27 1023 30.21 852 25.16 12.9 55.2 38 -1.1 29.9 13.21 0.52
11:28 1023 30.21 852 25.16 12.7 54.9 47 1.7 35.1 13.06 0.514
11:29 1023 30.21 852 25.16 12.7 54.9 37 -1.6 29.2 13.12 0.517
11:30 1023 30.21 852 25.16 12.6 54.7 39 -1 30.1 13.06 0.514
11:31 1023 30.21 852 25.16 12.7 54.8 44 0.8 33.5 13.14 0.517
11:32 1023 30.21 852 25.16 12.8 55 47 1.8 35.3 13.31 0.524
11:33 1023 30.21 852 25.16 13.1 55.5 47 2 35.6 13.53 0.533
11:34 1023 30.21 852 25.16 13.3 55.9 45 1.6 34.8 13.7 0.539
11:35 1023 30.21 852 25.16 13.2 55.8 40 -0.1 31.8 13.63 0.537
11:36 1023 30.21 852 25.16 13.1 55.5 39 -0.6 30.9 13.48 0.531
11:37 1023 30.21 852 25.16 13 55.5 43 1 33.7 13.49 0.531
11:38 1023 30.21 852 25.16 13.1 55.5 47 2.1 35.7 13.49 0.531
11:39 1023 30.21 852 25.16 13.1 55.5 40 -0.3 31.5 13.53 0.533
11:40 1023 30.21 852 25.16 13.2 55.7 46 1.9 35.4 13.58 0.535
11:41 1023 30.21 852 25.16 13.3 55.9 41 0.4 32.7 13.66 0.538
11:42 1023 30.21 852 25.16 13.2 55.8 45 1.5 34.6 13.61 0.536
11:43 1023 30.21 852 25.16 13.3 55.9 47 2.3 36.1 13.73 0.541
11:44 1023 30.21 852 25.16 13.5 56.3 42 0.8 33.4 13.92 0.548
11:45 1023 30.21 852 25.16 13.3 56 39 -0.1 31.8 13.73 0.541
11:46 1023 30.21 852 25.16 13.1 55.6 42 0.6 33 13.58 0.535
11:47 1023 30.21 852 25.16 13 55.5 46 1.7 35 13.58 0.535
11:48 1023 30.21 852 25.16 13.2 55.7 48 2.4 36.3 13.7 0.539
11:49 1023 30.21 852 25.16 13.3 56 43 1.1 34 13.88 0.546
11:50 1023 30.21 852 25.16 13.4 56.1 42 0.8 33.4 13.88 0.546
11:51 1023 30.21 852 25.16 13.4 56.1 38 -0.4 31.2 13.8 0.543
11:52 1023 30.21 852 25.16 13.4 56.1 44 1.6 34.9 13.74 0.541
11:53 1023 30.21 852 25.16 13.4 56.2 40 0 32.1 13.84 0.545
11:54 1023 30.21 852 25.16 13.4 56.2 42 0.7 33.3 13.79 0.543
11:55 1023 30.21 852 25.16 13.4 56.2 43 1.2 34.2 13.84 0.545
11:56 1023 30.21 852 25.16 13.5 56.4 43 1.3 34.4 13.92 0.548
11:57 1023 30.21 852 25.16 13.6 56.5 42 0.9 33.7 13.8 0.543
11:58 1023 30.21 852 25.16 13.6 56.5 42 1 33.8 13.84 0.545
11:59 1023 30.21 852 25.16 13.6 56.4 44 1.5 34.7 13.87 0.546
12:00 1023 30.21 852 25.16 13.7 56.6 36 -1 30.2 13.95 0.549
12:01 1023 30.21 852 25.16 13.6 56.5 40 0.5 32.9 13.83 0.544
12:02 1023 30.21 852 25.16 13.5 56.3 40 0.3 32.5 13.77 0.542
12:03 1023 30.21 852 25.16 13.4 56.2 43 1.1 34 13.74 0.541
12:04 1023 30.21 852 25.16 13.5 56.3 42 0.9 33.7 13.79 0.543
12:05 1023 30.21 852 25.16 13.6 56.4 41 0.6 33 13.8 0.543
12:06 1023 30.21 852 25.16 13.6 56.4 42 1.1 33.9 13.85 0.545
12:07 1023 30.21 852 25.16 13.6 56.5 40 0.3 32.5 13.87 0.546
12:08 1023 30.21 852 25.16 13.6 56.4 41 0.5 32.9 13.78 0.543
12:09 1023 30.21 852 25.16 13.6 56.4 41 0.6 33 13.74 0.541
12:10 1023 30.21 852 25.16 13.5 56.4 40 0.4 32.8 13.77 0.542
12:11 1023 30.21 852 25.16 13.6 56.4 49 3.2 37.7 13.79 0.543
12:12 1023 30.21 852 25.16 13.7 56.6 39 -0 32 14.02 0.552
12:13 1023 30.21 852 25.16 13.8 56.8 43 1.5 34.7 14.03 0.552
12:14 1023 30.21 852 25.16 13.8 56.9 40 0.5 32.9 14.03 0.552
12:15 1023 30.21 852 25.16 13.9 57 44 1.8 35.2 14.11 0.556
12:16 1023 30.21 852 25.16 13.9 57 41 1.1 33.9 14.19 0.559
12:17 1023 30.21 852 25.16 14 57.2 42 1.3 34.4 14.27 0.562
12:18 1023 30.21 852 25.16 14 57.1 43 1.6 34.8 14.23 0.56
12:19 1023 30.21 852 25.16 14 57.1 41 0.9 33.6 14.26 0.561
12:20 1023 30.21 852 25.16 14 57.1 37 -0.2 31.6 14.26 0.561
12:21 1023 30.21 852 25.16 13.9 57 46 2.5 36.5 14.27 0.562
12:22 1023 30.21 852 25.16 14 57.2 38 0.1 32.3 14.39 0.567
12:23 1023 30.21 852 25.16 13.9 57 40 0.7 33.2 14.27 0.562
12:24 1023 30.21 852 25.16 13.8 56.8 43 1.4 34.5 14.23 0.56
12:25 1023 30.21 852 25.16 13.9 57.1 46 2.7 36.9 14.4 0.567
12:26 1023 30.21 852 25.16 14.1 57.4 35 -1 30.3 14.57 0.574
12:27 1023 30.21 852 25.16 14.2 57.6 35 -0.8 30.6 14.51 0.571
12:28 1023 30.21 852 25.16 14.2 57.5 40 0.9 33.7 14.37 0.566
12:29 1023 30.21 852 25.16 14 57.3 36 -0.6 30.9 14.23 0.56
12:30 1023 30.21 852 25.16 14 57.1 41 1 33.8 14.23 0.56
12:31 1023 30.21 852 25.16 14.1 57.4 39 0.3 32.6 14.42 0.568
12:32 1023 30.21 852 25.16 14.2 57.6 42 1.5 34.6 14.57 0.574
12:33 1023 30.21 852 25.16 14.2 57.5 42 1.6 34.9 14.52 0.572
12:34 1023 30.21 852 25.16 14.3 57.8 37 -0.1 31.9 14.71 0.579
12:35 1023 30.21 852 25.16 14.4 58 45 2.6 36.8 14.81 0.583
12:36 1023 30.21 852 25.16 14.5 58.2 40 1.1 34 14.84 0.584
12:37 1023 30.21 852 25.16 14.4 58 38 0.3 32.5 14.77 0.581
12:38 1023 30.21 852 25.16 14.3 57.7 41 1.4 34.5 14.63 0.576
12:39 1023 30.21 852 25.16 14.2 57.6 37 -0.2 31.7 14.55 0.573
12:40 1023 30.21 852 25.16 14.3 57.7 45 2.5 36.5 14.5 0.571
12:41 1023 30.21 852 25.16 14.3 57.7 39 0.8 33.4 14.52 0.572
12:42 1023 30.21 852 25.16 14.3 57.8 38 0.2 32.4 14.52 0.572
12:43 1023 30.21 852 25.16 14.4 57.8 36 -0.5 31.1 14.49 0.57
12:44 1023 30.21 852 25.16 14.3 57.7 34 -1.3 29.6 14.49 0.57
12:45 1023 30.21 852 25.16 14.2 57.5 33 -1.7 28.9 14.43 0.568
12:46 1023 30.21 852 25.16 14.1 57.5 38 0.2 32.3 14.32 0.564
12:47 1023 30.21 852 25.16 14.1 57.4 36 -0.7 30.7 14.32 0.564
12:48 1023 30.21 852 25.16 14.1 57.4 32 -2.2 28.1 14.33 0.564
12:49 1023 30.21 852 25.16 14.2 57.5 42 1.4 34.5 14.34 0.565
12:50 1023 30.21 852 25.16 14.2 57.5 31 -2.6 27.3 14.44 0.569
12:51 1023 30.21 852 25.16 14.1 57.4 41 1 33.9 14.49 0.57
12:52 1023 30.21 852 25.16 14.3 57.7 33 -1.7 28.9 14.59 0.574
12:53 1023 30.21 852 25.16 14.4 58 32 -2 28.3 14.59 0.574
12:54 1023 30.21 852 25.16 14.5 58.1 34 -1.1 30 14.64 0.576
12:55 1023 30.21 852 25.16 14.6 58.3 37 0.3 32.5 14.77 0.581
12:56 1023 30.21 852 25.16 14.7 58.5 31 -2.1 28.2 14.92 0.587
12:57 1023 30.21 852 25.16 14.7 58.5 37 0.3 32.5 14.82 0.583
12:58 1023 30.21 852 25.16 14.8 58.6 33 -1.1 30 14.99 0.59
12:59 1023 30.21 852 25.16 14.8 58.7 37 0.3 32.5 15.09 0.594
13:00 1023 30.21 852 25.16 14.8 58.7 32 -1.6 29.2 15.16 0.597
13:01 1022 30.18 852 25.16 14.8 58.7 40 1.6 34.9 15.22 0.599
13:02 1022 30.18 852 25.16 14.9 58.7 31 -1.9 28.6 15.19 0.598
13:03 1022 30.18 852 25.16 14.7 58.5 30 -2.7 27.1 15.12 0.595
13:04 1022 30.18 852 25.16 14.7 58.4 35 -0.6 30.9 15.18 0.598
13:05 1022 30.18 852 25.16 14.8 58.6 33 -1.4 29.4 15.29 0.602
13:06 1022 30.18 852 25.16 14.9 58.8 39 1 33.9 15.35 0.604
13:07 1022 30.18 852 25.16 15 59 32 -1.4 29.6 15.48 0.609
13:08 1022 30.18 852 25.16 15 59 30 -2.2 28 15.51 0.611
13:09 1022 30.18 851 25.13 15 58.9 33 -1.1 30 15.43 0.607
13:10 1022 30.18 851 25.13 15 59 35 -0.3 31.5 15.44 0.608
13:11 1022 30.18 851 25.13 14.9 58.9 30 -2.5 27.5 15.4 0.606
13:12 1022 30.18 851 25.13 14.9 58.8 35 -0.2 31.6 15.42 0.607
13:13 1022 30.18 851 25.13 15.1 59.2 30 -2.1 28.2 15.6 0.614
13:14 1022 30.18 851 25.13 15.2 59.3 37 0.9 33.6 15.72 0.619
13:15 1022 30.18 851 25.13 15.3 59.5 35 -0.1 31.8 15.82 0.623
13:16 1022 30.18 851 25.13 15.4 59.8 27 -3.4 25.9 15.87 0.625
13:17 1022 30.18 851 25.13 15.5 59.9 36 0.5 32.9 15.93 0.627
13:18 1022 30.18 851 25.13 15.6 60.1 29 -2.3 27.8 16.11 0.634
13:19 1022 30.18 851 25.13 15.6 60 26 -3.7 25.4 16.07 0.633
13:20 1022 30.18 851 25.13 15.5 59.9 36 0.5 33 15.99 0.63
13:21 1022 30.18 851 25.13 15.6 60.1 26 -3.7 25.3 16.12 0.635
13:22 1022 30.18 851 25.13 15.7 60.2 32 -0.9 30.3 16.14 0.635
13:23 1022 30.18 851 25.13 15.8 60.4 31 -1.2 29.9 16.29 0.641
13:24 1022 30.18 851 25.13 15.9 60.7 27 -2.8 27 16.47 0.648
13:25 1022 30.18 851 25.13 15.9 60.6 30 -1.4 29.5 16.4 0.646
13:26 1022 30.18 851 25.13 15.8 60.5 32 -0.5 31 16.35 0.644
13:27 1022 30.18 851 25.13 15.8 60.5 28 -2.5 27.5 16.34 0.643
13:28 1022 30.18 851 25.13 15.7 60.3 31 -1.3 29.6 16.31 0.642
13:29 1022 30.18 851 25.13 15.9 60.5 30 -1.8 28.8 16.37 0.644
13:30 1022 30.18 851 25.13 15.9 60.6 30 -1.7 29 16.41 0.646
13:31 1022 30.18 851 25.13 15.9 60.6 30 -1.5 29.3 16.46 0.648
13:32 1022 30.18 851 25.13 15.9 60.6 26 -3.7 25.3 16.42 0.646
13:33 1022 30.18 851 25.13 15.8 60.4 26 -3.5 25.8 16.22 0.639
13:34 1022 30.18 851 25.13 15.6 60 29 -2.3 27.8 16.03 0.631
13:35 1022 30.18 851 25.13 15.6 60.2 32 -0.7 30.7 16.01 0.63
13:36 1022 30.18 851 25.13 15.8 60.4 27 -3.2 26.2 16.18 0.637
13:37 1022 30.18 851 25.13 16 60.7 33 -0.4 31.4 16.31 0.642
13:38 1022 30.18 851 25.13 16.1 61 33 0.1 32.1 16.36 0.644
13:39 1022 30.18 851 25.13 16.2 61.2 26 -3.4 25.9 16.52 0.65
13:40 1022 30.18 851 25.13 16.2 61.1 24 -4.2 24.4 16.46 0.648
13:41 1022 30.18 851 25.13 16 60.7 31 -0.8 30.5 16.41 0.646
13:42 1022 30.18 851 25.13 16.1 60.9 29 -2.1 28.3 16.5 0.65
13:43 1022 30.18 851 25.13 16.2 61.1 26 -3.4 25.8 16.52 0.65
13:44 1022 30.18 851 25.13 16.2 61.1 30 -1.5 29.3 16.37 0.644
13:45 1022 30.18 851 25.13 16.1 61 29 -1.9 28.6 16.3 0.642
13:46 1022 30.18 851 25.13 16.1 60.9 28 -2.2 28 16.26 0.64
13:47 1022 30.18 851 25.13 16 60.8 26 -3.4 25.8 16.3 0.642
13:48 1022 30.18 851 25.13 16.1 60.9 28 -2.3 27.8 16.36 0.644
13:49 1022 30.18 851 25.13 16.1 61.1 31 -0.8 30.5 16.36 0.644
13:50 1022 30.18 851 25.13 16.2 61.1 25 -3.7 25.3 16.35 0.644
13:51 1022 30.18 851 25.13 16.1 61.1 32 -0.4 31.4 16.35 0.644
13:52 1022 30.18 851 25.13 16.3 61.3 30 -1.2 29.8 16.55 0.652
13:53 1022 30.18 851 25.13 16.4 61.5 32 -0.2 31.7 16.69 0.657
13:54 1022 30.18 851 25.13 16.5 61.7 26 -3.1 26.5 16.7 0.657
13:55 1022 30.18 851 25.13 16.4 61.5 27 -2.6 27.3 16.54 0.651
13:56 1022 30.18 851 25.13 16.4 61.4 29 -1.8 28.8 16.57 0.652
13:57 1022 30.18 851 25.13 16.4 61.5 29 -1.5 29.4 16.66 0.656
13:58 1022 30.18 851 25.13 16.5 61.8 28 -1.7 28.9 16.86 0.664
13:59 1022 30.18 851 25.13 16.7 62.1 28 -1.7 29 17.01 0.67
14:00 1022 30.18 851 25.13 16.8 62.2 29 -1.1 30 16.98 0.669
14:01 1022 30.18 851 25.13 16.8 62.2 24 -3.8 25.2 16.95 0.667
14:02 1022 30.18 851 25.13 16.7 62.1 23 -4.5 24 16.83 0.663
14:03 1022 30.18 851 25.13 16.6 62 23 -4.3 24.3 16.79 0.661
14:04 1022 30.18 851 25.13 16.7 62 31 -0.6 30.9 16.9 0.665
14:05 1022 30.18 851 25.13 16.6 61.9 25 -3.4 25.8 16.98 0.669
14:06 1022 30.18 851 25.13 16.5 61.7 25 -3.4 25.9 16.86 0.664
14:07 1022 30.18 851 25.13 16.4 61.5 29 -1.4 29.4 16.78 0.661
14:08 1022 30.18 851 25.13 16.5 61.6 26 -3 26.7 16.86 0.664
14:09 1022 30.18 851 25.13 16.6 61.8 25 -3.5 25.8 16.93 0.667
14:10 1022 30.18 851 25.13 16.6 61.9 28 -2 28.4 16.99 0.669
14:11 1022 30.18 851 25.13 16.7 62.1 26 -3 26.6 17.05 0.671
14:12 1022 30.18 851 25.13 16.8 62.2 34 1.1 33.9 17.08 0.672
14:13 1022 30.18 851 25.13 16.9 62.5 25 -2.9 26.7 17.27 0.68
14:14 1022 30.18 851 25.13 17 62.6 31 0.1 32.1 17.32 0.682
14:15 1022 30.18 851 25.13 17.1 62.8 28 -1.5 29.3 17.46 0.687
14:16 1022 30.18 851 25.13 17.3 63.1 24 -3.6 25.5 17.46 0.687
14:17 1022 30.18 851 25.13 17.3 63.2 27 -1.6 29.1 17.42 0.686
14:18 1022 30.18 851 25.13 17.1 62.8 31 -0.2 31.7 17.31 0.681
14:19 1022 30.18 851 25.13 17 62.6 24 -3.7 25.3 17.2 0.677
14:20 1022 30.18 851 25.13 16.9 62.3 23 -4.4 24.1 17.07 0.672
14:21 1022 30.18 851 25.13 16.8 62.2 28 -1.6 29 17 0.669
14:22 1022 30.18 851 25.13 16.7 62.1 28 -2 28.5 17.01 0.67
14:23 1022 30.18 851 25.13 16.9 62.3 29 -1.3 29.6 17.22 0.678
14:24 1022 30.18 851 25.13 17 62.5 27 -2.2 28 17.23 0.678
14:25 1022 30.18 851 25.13 17 62.6 26 -2.7 27.1 17.29 0.681
14:26 1022 30.18 851 25.13 17.1 62.8 24 -3.7 25.3 17.37 0.684
14:27 1022 30.18 851 25.13 17.1 62.8 23 -4.3 24.2 17.34 0.683
14:28 1022 30.18 851 25.13 17 62.6 24 -3.8 25.1 17.25 0.679
14:29 1022 30.18 851 25.13 16.9 62.4 22 -5 23 17.13 0.674
14:30 1022 30.18 851 25.13 16.9 62.4 25 -3.3 26.1 17.15 0.675
14:31 1022 30.18 851 25.13 17 62.5 23 -4.4 24 17.2 0.677
14:32 1022 30.18 851 25.13 17 62.7 28 -1.6 29 17.32 0.682
14:33 1022 30.18 851 25.13 17.2 62.9 23 -3.8 25.2 17.44 0.687
14:34 1022 30.18 851 25.13 17.2 63 20 -5.7 21.7 17.39 0.685
14:35 1022 30.18 851 25.13 17.2 63 22 -4.7 23.6 17.37 0.684
14:36 1022 30.18 851 25.13 17.2 63 21 -5.4 22.3 17.43 0.686
14:37 1022 30.18 851 25.13 17.2 63 23 -4.2 24.5 17.49 0.689
14:38 1022 30.18 851 25.13 17.3 63.2 23 -3.9 25.1 17.69 0.696
14:39 1022 30.18 851 25.13 17.5 63.6 21 -5.2 22.6 17.78 0.7
14:40 1022 30.18 851 25.13 17.6 63.6 24 -2.9 26.8 17.79 0.7
14:41 1022 30.18 851 25.13 17.5 63.5 25 -2.7 27.1 17.69 0.696
14:42 1022 30.18 851 25.13 17.5 63.5 22 -4.3 24.3 17.78 0.7
14:43 1022 30.18 851 25.13 17.5 63.5 21 -5.2 22.6 17.69 0.696
14:44 1022 30.18 851 25.13 17.4 63.4 21 -5.1 22.9 17.54 0.691
14:45 1022 30.18 851 25.13 17.5 63.4 19 -6.3 20.6 17.72 0.698
14:46 1022 30.18 851 25.13 17.6 63.7 23 -3.6 25.5 17.87 0.704
14:47 1021 30.15 851 25.13 17.6 63.8 18 -6.8 19.7 17.98 0.708
14:48 1021 30.15 851 25.13 17.5 63.5 21 -5 23 17.99 0.708
14:49 1021 30.15 851 25.13 17.5 63.6 26 -2.2 28.1 17.98 0.708
14:50 1021 30.15 851 25.13 17.7 63.8 22 -4.3 24.3 18.16 0.715
14:51 1021 30.15 851 25.13 17.7 63.9 25 -2.5 27.5 18.23 0.718
14:52 1021 30.15 851 25.13 17.8 64.1 23 -3.6 25.6 18.34 0.722
14:53 1021 30.15 851 25.13 18 64.3 24 -2.8 26.9 18.43 0.726
14:54 1021 30.15 851 25.13 18 64.4 25 -2.1 28.2 18.54 0.73
14:55 1021 30.15 851 25.13 18.2 64.8 19 -5.5 22.1 18.64 0.734
14:56 1021 30.15 851 25.13 18.3 65 23 -2.8 27 18.54 0.73
14:57 1021 30.15 851 25.13 18.4 65.1 26 -1.6 29.2 18.69 0.736
14:58 1021 30.15 851 25.13 18.4 65.2 18 -6.5 20.4 18.64 0.734
14:59 1021 30.15 851 25.13 18.3 64.9 20 -4.8 23.4 18.31 0.721
15:00 1021 30.15 851 25.13 18.2 64.7 21 -4.6 23.7 18.12 0.713
15:01 1021 30.15 851 25.13 18.1 64.6 22 -3.7 25.4 18.08 0.712
15:02 1021 30.15 851 25.13 18.1 64.6 19 -5.6 21.8 18.18 0.716
15:03 1021 30.15 851 25.13 18.2 64.8 21 -4.4 24.1 18.37 0.723
15:04 1021 30.15 851 25.13 18.3 65 24 -2.2 28 18.53 0.73
15:05 1021 30.15 851 25.13 18.4 65.2 23 -2.8 27 18.62 0.733
15:06 1021 30.15 851 25.13 18.4 65.1 23 -3.2 26.2 18.58 0.731
15:07 1021 30.15 851 25.13 18.4 65.1 23 -3.1 26.4 18.58 0.731
15:08 1021 30.15 851 25.13 18.3 64.9 22 -3.8 25.2 18.55 0.73
15:09 1021 30.15 851 25.13 18.2 64.8 20 -5.2 22.6 18.46 0.727
15:10 1021 30.15 851 25.13 18.1 64.5 18 -6.8 19.8 18.39 0.724
15:11 1021 30.15 851 25.13 17.9 64.3 17 -7.4 18.7 18.3 0.72
15:12 1021 30.15 851 25.13 18 64.3 19 -6.2 20.9 18.43 0.726
15:13 1021 30.15 851 25.13 18.2 64.8 21 -4.3 24.2 18.6 0.732
15:14 1021 30.15 851 25.13 18.3 65 22 -3.4 25.9 18.62 0.733
15:15 1021 30.15 850 25.1 18.3 65 23 -2.8 27 18.56 0.731
15:16 1021 30.15 850 25.1 18.3 65 17 -6.9 19.5 18.48 0.728
15:17 1021 30.15 850 25.1 18.3 64.9 20 -4.7 23.6 18.5 0.728
15:18 1021 30.15 850 25.1 18.3 64.9 20 -5.2 22.6 18.43 0.726
15:19 1021 30.15 850 25.1 18.2 64.8 18 -6.4 20.4 18.36 0.723
15:20 1021 30.15 850 25.1 18.2 64.7 23 -3.3 26 18.39 0.724
15:21 1021 30.15 850 25.1 18.3 64.9 20 -5.1 22.9 18.49 0.728
15:22 1021 30.15 850 25.1 18.3 64.9 21 -4.1 24.6 18.47 0.727
15:23 1021 30.15 850 25.1 18.3 64.9 20 -4.7 23.5 18.58 0.731
15:24 1021 30.15 850 25.1 18.3 64.9 16 -8 17.7 18.47 0.727
15:25 1021 30.15 850 25.1 18.2 64.8 19 -5.4 22.4 18.5 0.728
15:26 1021 30.15 850 25.1 18.2 64.7 21 -4.7 23.5 18.58 0.731
15:27 1021 30.15 850 25.1 18.2 64.8 19 -6 21.3 18.64 0.734
15:28 1021 30.15 850 25.1 18.3 64.9 17 -6.8 19.7 18.72 0.737
15:29 1021 30.15 850 25.1 18.5 65.2 22 -3.7 25.3 18.94 0.746
15:30 1021 30.15 850 25.1 18.6 65.5 18 -6 21.2 18.93 0.745
15:31 1021 30.15 850 25.1 18.6 65.4 22 -3.3 26.1 18.78 0.739
15:32 1021 30.15 850 25.1 18.5 65.3 22 -3.2 26.2 18.83 0.741
15:33 1021 30.15 850 25.1 18.6 65.5 17 -6.7 20 18.82 0.741
15:34 1021 30.15 850 25.1 18.6 65.5 16 -7.2 19 18.72 0.737
15:35 1021 30.15 850 25.1 18.6 65.4 20 -4.5 23.8 18.65 0.734
15:36 1021 30.15 850 25.1 18.5 65.4 17 -6.5 20.3 18.75 0.738
15:37 1021 30.15 850 25.1 18.6 65.4 23 -2.8 27 18.85 0.742
15:38 1021 30.15 850 25.1 18.7 65.6 21 -4 24.8 19.03 0.749
15:39 1021 30.15 850 25.1 18.7 65.6 19 -5.4 22.3 18.98 0.747
15:40 1021 30.15 850 25.1 18.5 65.4 15 -8.2 17.2 18.96 0.746
15:41 1021 30.15 850 25.1 18.5 65.3 16 -7.6 18.4 18.9 0.744
15:42 1021 30.15 850 25.1 18.6 65.6 16 -7.7 18.2 18.96 0.746
15:43 1021 30.15 850 25.1 18.7 65.7 18 -6.3 20.7 19.11 0.752
15:44 1021 30.15 850 25.1 18.8 65.9 23 -2.8 27 19.22 0.757
15:45 1021 30.15 850 25.1 18.9 66.1 16 -7.6 18.2 19.39 0.763
15:46 1021 30.15 850 25.1 18.9 66 17 -6.5 20.3 19.39 0.763
15:47 1021 30.15 850 25.1 18.8 65.9 16 -7.5 18.4 19.31 0.76
15:48 1021 30.15 850 25.1 18.8 65.8 17 -7 19.4 19.2 0.756
15:49 1021 30.15 850 25.1 18.7 65.7 19 -5.5 22.1 19.14 0.754
15:50 1021 30.15 850 25.1 18.7 65.7 22 -3.5 25.8 19.18 0.755
15:51 1021 30.15 850 25.1 18.8 65.9 20 -4.7 23.6 19.26 0.758
15:52 1021 30.15 850 25.1 18.9 66 17 -6.7 20 19.26 0.758
15:53 1021 30.15 850 25.1 18.8 65.8 24 -2.1 28.2 19.28 0.759
15:54 1021 30.15 850 25.1 18.9 65.9 20 -4.5 23.9 19.3 0.76
15:55 1021 30.15 850 25.1 18.8 65.8 16 -7.6 18.2 19.24 0.757
15:56 1021 30.15 850 25.1 18.8 65.8 17 -6.9 19.7 19.28 0.759
15:57 1021 30.15 850 25.1 18.9 65.9 23 -2.7 27.2 19.36 0.762
15:58 1021 30.15 850 25.1 18.9 66.1 22 -3.3 26.1 19.39 0.763
15:59 1021 30.15 850 25.1 18.9 66.1 21 -3.5 25.7 19.46 0.766
16:00 1021 30.15 850 25.1 19 66.2 20 -4.5 23.9 19.48 0.767
16:01 1021 30.15 850 25.1 19 66.2 17 -6.3 20.6 19.38 0.763
16:02 1021 30.15 850 25.1 18.9 66 18 -6.2 20.9 19.3 0.76
16:03 1021 30.15 850 25.1 18.8 65.9 21 -3.8 25.1 19.24 0.757
16:04 1021 30.15 850 25.1 18.7 65.7 17 -6.6 20.2 19.15 0.754
16:05 1021 30.15 850 25.1 18.7 65.7 22 -3.6 25.5 19.16 0.754
16:06 1021 30.15 850 25.1 18.7 65.7 21 -3.9 25 19.12 0.753
16:07 1021 30.15 850 25.1 18.7 65.7 20 -4.8 23.4 19.12 0.753
16:08 1021 30.15 850 25.1 18.7 65.6 17 -7 19.4 19.05 0.75
16:09 1021 30.15 850 25.1 18.6 65.5 16 -7.9 17.8 19 0.748
16:10 1021 30.15 850 25.1 18.6 65.4 16 -7.6 18.3 18.97 0.747
16:11 1021 30.15 850 25.1 18.6 65.5 18 -6.1 21 19.02 0.749
16:12 1021 30.15 850 25.1 18.7 65.6 19 -5.5 22.1 19.13 0.753
16:13 1021 30.15 850 25.1 18.7 65.6 15 -8 17.7 19.07 0.751
16:14 1021 30.15 850 25.1 18.6 65.5 17 -6.9 19.6 19.03 0.749
16:15 1021 30.15 850 25.1 18.6 65.4 15 -8.2 17.3 19 0.748
16:16 1021 30.15 850 25.1 18.5 65.4 20 -4.8 23.3 18.95 0.746
16:17 1021 30.15 850 25.1 18.6 65.5 13 -10.1 13.8 18.97 0.747
16:18 1021 30.15 850 25.1 18.6 65.4 13 -10.3 13.4 18.99 0.748
16:19 1021 30.15 850 25.1 18.6 65.4 18 -6.3 20.7 18.99 0.748
16:20 1021 30.15 850 25.1 18.6 65.5 20 -4.6 23.8 19.07 0.751
16:21 1021 30.15 850 25.1 18.7 65.6 18 -5.8 21.5 19.1 0.752
16:22 1021 30.15 850 25.1 18.6 65.6 20 -5 23.1 19.09 0.752
16:23 1021 30.15 850 25.1 18.7 65.6 18 -6 21.2 19.08 0.751
16:24 1021 30.15 850 25.1 18.8 65.8 23 -3 26.7 19.19 0.756
16:25 1021 30.15 850 25.1 18.8 65.9 21 -3.5 25.6 19.25 0.758
16:26 1021 30.15 850 25.1 18.9 65.9 14 -9.4 15.1 19.25 0.758
16:27 1021 30.15 850 25.1 18.8 65.8 19 -5.3 22.4 19.25 0.758
16:28 1021 30.15 850 25.1 18.8 65.9 21 -3.7 25.4 19.28 0.759
16:29 1021 30.15 850 25.1 18.9 66.1 23 -2.7 27.1 19.42 0.765
16:30 1021 30.15 850 25.1 19 66.3 17 -6.4 20.4 19.5 0.768
16:31 1021 30.15 850 25.1 19.1 66.3 20 -4.5 23.9 19.5 0.768
16:32 1021 30.15 850 25.1 19 66.3 19 -5.1 22.8 19.45 0.766
16:33 1021 30.15 850 25.1 18.9 66.1 18 -5.9 21.4 19.3 0.76
16:34 1021 30.15 850 25.1 18.8 65.8 18 -6.3 20.7 19.2 0.756
16:35 1021 30.15 850 25.1 18.7 65.7 16 -7.9 17.8 19.12 0.753
16:36 1021 30.15 850 25.1 18.7 65.7 20 -4.4 24 19.08 0.751
16:37 1021 30.15 850 25.1 18.7 65.7 22 -3.3 26.1 19.19 0.756
16:38 1021 30.15 850 25.1 18.8 65.8 19 -5.1 22.8 19.19 0.756
16:39 1021 30.15 850 25.1 18.8 65.8 17 -6.9 19.6 19.15 0.754
16:40 1021 30.15 850 25.1 18.8 65.8 20 -4.4 24.1 19.16 0.754
16:41 1021 30.15 850 25.1 18.8 65.9 22 -3.4 25.9 19.27 0.759
16:42 1021 30.15 850 25.1 19 66.1 17 -6.6 20 19.41 0.764
16:43 1021 30.15 850 25.1 19 66.2 19 -4.9 23.1 19.41 0.764
16:44 1021 30.15 850 25.1 19 66.3 19 -5.2 22.6 19.51 0.768
16:45 1021 30.15 850 25.1 19.1 66.3 21 -3.6 25.4 19.52 0.769
16:46 1021 30.15 850 25.1 19.1 66.4 23 -2.5 27.6 19.55 0.77
16:47 1021 30.15 850 25.1 19.1 66.4 19 -4.6 23.8 19.54 0.769
16:48 1021 30.15 850 25.1 19 66.3 21 -3.4 25.8 19.44 0.765
16:49 1021 30.15 850 25.1 19 66.1 17 -6.3 20.7 19.37 0.763
16:50 1021 30.15 850 25.1 18.9 66 21 -4 24.8 19.31 0.76
16:51 1021 30.15 850 25.1 18.8 65.9 27 -0.5 31.2 19.31 0.76
16:52 1021 30.15 850 25.1 18.9 66 17 -6.5 20.4 19.34 0.761
16:53 1021 30.15 850 25.1 18.9 66 21 -3.6 25.5 19.3 0.76
16:54 1021 30.15 850 25.1 18.9 65.9 20 -4.5 23.9 19.27 0.759
16:55 1021 30.15 850 25.1 18.9 65.9 21 -3.8 25.1 19.25 0.758
16:56 1021 30.15 850 25.1 18.8 65.9 19 -5.1 22.8 19.19 0.756
16:57 1021 30.15 850 25.1 18.7 65.7 18 -6.3 20.6 19.12 0.753
16:58 1021 30.15 850 25.1 18.7 65.7 17 -6.6 20.2 19.06 0.75
16:59 1021 30.15 850 25.1 18.7 65.6 20 -4.6 23.7 19.02 0.749
17:00 1021 30.15 850 25.1 18.7 65.6 15 -8.2 17.2 19.12 0.753
17:01 1021 30.15 850 25.1 18.7 65.7 17 -6.8 19.7 19.1 0.752
17:02 1021 30.15 850 25.1 18.7 65.7 17 -6.9 19.6 19.18 0.755
17:03 1021 30.15 850 25.1 18.8 65.9 20 -4.8 23.3 19.27 0.759
17:04 1021 30.15 850 25.1 18.8 65.9 16 -7 19.3 19.22 0.757
17:05 1021 30.15 850 25.1 18.7 65.7 18 -6.3 20.7 19.12 0.753
17:06 1021 30.15 850 25.1 18.7 65.6 17 -6.7 20 19.03 0.749
17:07 1021 30.15 850 25.1 18.7 65.6 21 -4.1 24.7 19.08 0.751
17:08 1021 30.15 850 25.1 18.7 65.7 17 -6.8 19.8 19.11 0.752
17:09 1020 30.12 850 25.1 18.7 65.7 18 -5.8 21.5 19.11 0.752
17:10 1020 30.12 850 25.1 18.7 65.7 17 -6.6 20.1 19.12 0.753
17:11 1021 30.15 850 25.1 18.7 65.7 15 -8.8 16.2 19.13 0.753
17:12 1021 30.15 850 25.1 18.7 65.7 17 -6.7 19.9 19.11 0.752
17:13 1021 30.15 850 25.1 18.7 65.6 18 -5.8 21.6 19.03 0.749
17:14 1021 30.15 850 25.1 18.6 65.5 16 -7.7 18.2 19.02 0.749
17:15 1021 30.15 850 25.1 18.6 65.5 17 -6.5 20.4 19.01 0.748
17:16 1021 30.15 850 25.1 18.6 65.5 16 -7.5 18.5 18.99 0.748
17:17 1021 30.15 850 25.1 18.6 65.5 18 -5.9 21.4 19.02 0.749
17:18 1021 30.15 850 25.1 18.6 65.5 21 -3.8 25.1 19.06 0.75
17:19 1021 30.15 850 25.1 18.6 65.6 18 -5.9 21.4 19.11 0.752
17:20 1021 30.15 850 25.1 18.7 65.6 16 -7.2 19 19.04 0.75
17:21 1021 30.15 850 25.1 18.7 65.6 15 -8.1 17.5 19.04 0.75
17:22 1021 30.15 850 25.1 18.6 65.6 21 -3.8 25.1 19.04 0.75
17:23 1021 30.15 850 25.1 18.6 65.5 16 -7.3 18.9 19.01 0.748
17:24 1021 30.15 850 25.1 18.6 65.5 18 -5.9 21.4 19.01 0.748
17:25 1021 30.15 850 25.1 18.6 65.6 21 -3.9 25.1 19.08 0.751
17:26 1021 30.15 850 25.1 18.6 65.6 18 -5.9 21.4 19.07 0.751
17:27 1020 30.12 850 25.1 18.7 65.6 14 -9 15.7 19.03 0.749
17:28 1021 30.15 850 25.1 18.6 65.5 19 -5.2 22.6 19.03 0.749
17:29 1020 30.12 850 25.1 18.6 65.5 18 -6 21.2 18.98 0.747
17:30 1021 30.15 850 25.1 18.6 65.4 17 -7 19.5 18.94 0.746
17:31 1021 30.15 850 25.1 18.6 65.4 17 -7.1 19.2 18.97 0.747
17:32 1021 30.15 850 25.1 18.5 65.4 18 -6.2 20.9 18.91 0.744
17:33 1021 30.15 850 25.1 18.5 65.3 18 -6.2 20.8 18.83 0.741
17:34 1021 30.15 850 25.1 18.4 65.1 16 -7.4 18.6 18.8 0.74
17:35 1021 30.15 850 25.1 18.4 65.1 18 -6.5 20.2 18.77 0.739
17:36 1021 30.15 850 25.1 18.4 65.2 18 -6.3 20.6 18.82 0.741
17:37 1021 30.15 850 25.1 18.5 65.2 22 -3.4 25.8 18.87 0.743
17:38 1020 30.12 850 25.1 18.5 65.2 17 -6.8 19.7 18.91 0.744
17:39 1020 30.12 850 25.1 18.5 65.3 16 -7.8 17.9 18.9 0.744
17:40 1020 30.12 850 25.1 18.5 65.3 18 -6.4 20.5 18.88 0.743
17:41 1020 30.12 850 25.1 18.5 65.3 17 -7.1 19.2 18.91 0.744
17:42 1020 30.12 850 25.1 18.5 65.4 18 -6.5 20.4 18.88 0.743
17:43 1020 30.12 850 25.1 18.6 65.4 19 -5.4 22.3 18.9 0.744
17:44 1020 30.12 850 25.1 18.5 65.4 22 -3.7 25.3 18.88 0.743
17:45 1020 30.12 850 25.1 18.5 65.3 23 -2.7 27.1 18.84 0.742
17:46 1020 30.12 850 25.1 18.4 65.2 22 -3.6 25.5 18.75 0.738
17:47 1020 30.12 850 25.1 18.4 65.1 24 -2.3 27.9 18.67 0.735
17:48 1020 30.12 850 25.1 18.4 65.1 25 -2 28.5 18.72 0.737
17:49 1020 30.12 850 25.1 18.4 65.1 23 -3 26.7 18.75 0.738
17:50 1020 30.12 850 25.1 18.4 65.2 18 -6.1 21 18.8 0.74
17:51 1020 30.12 850 25.1 18.5 65.3 16 -7.5 18.6 18.82 0.741
17:52 1020 30.12 850 25.1 18.5 65.2 19 -5.3 22.4 18.84 0.742
17:53 1020 30.12 850 25.1 18.4 65.2 18 -6.4 20.5 18.83 0.741
17:54 1020 30.12 850 25.1 18.4 65.1 20 -5.1 22.9 18.79 0.74
17:55 1020 30.12 850 25.1 18.4 65.1 19 -5.4 22.2 18.77 0.739
17:56 1020 30.12 850 25.1 18.4 65 21 -4.2 24.5 18.78 0.739
17:57 1020 30.12 850 25.1 18.3 65 16 -7.5 18.6 18.76 0.739
17:58 1020 30.12 850 25.1 18.3 65 21 -4.6 23.8 18.76 0.739
17:59 1020 30.12 850 25.1 18.2 64.8 23 -2.9 26.7 18.67 0.735
18:00 1020 30.12 850 25.1 18.1 64.5 19 -6.1 21.1 18.5 0.728
18:01 1020 30.12 850 25.1 18.2 64.7 24 -2.9 26.8 18.47 0.727
18:02 1020 30.12 850 25.1 18.1 64.6 24 -2.7 27.2 18.4 0.724
18:03 1020 30.12 850 25.1 18 64.4 25 -2.4 27.8 18.27 0.719
18:04 1020 30.12 850 25.1 18 64.4 26 -1.8 28.8 18.21 0.717
18:05 1020 30.12 850 25.1 18 64.4 25 -2.2 28 18.2 0.717
18:06 1021 30.15 850 25.1 18 64.4 24 -2.6 27.3 18.17 0.715
18:07 1020 30.12 850 25.1 18.1 64.5 22 -3.6 25.5 18.2 0.717
18:08 1020 30.12 850 25.1 18.1 64.6 26 -1.6 29.2 18.24 0.718
18:09 1020 30.12 850 25.1 18.2 64.7 25 -1.9 28.7 18.29 0.72
18:10 1020 30.12 850 25.1 18.1 64.6 24 -2.7 27.1 18.3 0.72
18:11 1020 30.12 850 25.1 18.1 64.5 24 -2.6 27.4 18.28 0.72
18:12 1020 30.12 850 25.1 18.1 64.5 27 -1.2 29.8 18.29 0.72
18:13 1020 30.12 850 25.1 18 64.5 25 -1.9 28.5 18.19 0.716
18:14 1020 30.12 850 25.1 18 64.4 26 -1.5 29.4 18.07 0.711
18:15 1020 30.12 850 25.1 17.9 64.3 25 -2.1 28.1 17.99 0.708
18:16 1020 30.12 850 25.1 17.9 64.2 24 -3.1 26.5 17.95 0.707
18:17 1020 30.12 850 25.1 17.8 64 24 -2.8 26.9 17.9 0.705
18:18 1020 30.12 850 25.1 17.7 63.9 28 -0.9 30.4 17.85 0.703
18:19 1020 30.12 850 25.1 17.7 63.9 25 -2.3 27.8 17.79 0.7
18:20 1020 30.12 850 25.1 17.6 63.7 25 -2.5 27.4 17.75 0.699
18:21 1020 30.12 850 25.1 17.6 63.8 22 -4.1 24.7 17.68 0.696
18:22 1020 30.12 850 25.1 17.6 63.7 22 -4 24.8 17.65 0.695
18:23 1020 30.12 850 25.1 17.6 63.6 24 -3.3 26.1 17.68 0.696
18:24 1020 30.12 850 25.1 17.5 63.5 20 -5.7 21.8 17.67 0.696
18:25 1020 30.12 850 25.1 17.6 63.6 24 -3.1 26.3 17.74 0.698
18:26 1020 30.12 850 25.1 17.6 63.6 22 -4.4 24 17.77 0.7
18:27 1020 30.12 850 25.1 17.6 63.7 26 -2 28.3 17.81 0.701
18:28 1020 30.12 850 25.1 17.6 63.7 22 -4.4 24.1 17.75 0.699
18:29 1020 30.12 850 25.1 17.6 63.6 23 -3.7 25.3 17.75 0.699
18:30 1020 30.12 850 25.1 17.5 63.5 22 -4 24.7 17.72 0.698
18:31 1020 30.12 850 25.1 17.5 63.5 22 -4.6 23.7 17.68 0.696
18:32 1020 30.12 850 25.1 17.5 63.5 23 -3.8 25.1 17.67 0.696
18:33 1020 30.12 850 25.1 17.4 63.4 21 -4.8 23.3 17.61 0.693
18:34 1020 30.12 850 25.1 17.4 63.4 21 -5.3 22.4 17.63 0.694
18:35 1020 30.12 850 25.1 17.4 63.4 22 -4.2 24.4 17.63 0.694
18:36 1020 30.12 850 25.1 17.4 63.4 25 -2.7 27.2 17.63 0.694
18:37 1020 30.12 850 25.1 17.4 63.2 22 -4.5 23.8 17.53 0.69
18:38 1020 30.12 850 25.1 17.3 63.2 22 -4.3 24.3 17.49 0.689
18:39 1020 30.12 850 25.1 17.3 63.1 24 -3.5 25.6 17.45 0.687
18:40 1020 30.12 850 25.1 17.3 63.1 24 -3.3 26.1 17.48 0.688
18:41 1020 30.12 850 25.1 17.3 63.2 24 -3.2 26.2 17.51 0.689
18:42 1020 30.12 850 25.1 17.3 63.1 23 -4 24.7 17.43 0.686
18:43 1020 30.12 850 25.1 17.2 63 23 -3.7 25.3 17.38 0.684
18:44 1020 30.12 850 25.1 17.3 63.1 23 -4.1 24.7 17.34 0.683
18:45 1020 30.12 850 25.1 17.3 63.1 22 -4.8 23.4 17.42 0.686
18:46 1020 30.12 850 25.1 17.3 63.1 23 -3.9 25 17.41 0.685
18:47 1020 30.12 850 25.1 17.3 63.1 22 -4.4 24.1 17.4 0.685
18:48 1020 30.12 850 25.1 17.1 62.9 21 -5 23.1 17.3 0.681
18:49 1020 30.12 850 25.1 17.1 62.8 23 -3.9 24.9 17.28 0.68
18:50 1020 30.12 850 25.1 17.1 62.7 22 -4.8 23.4 17.29 0.681
18:51 1020 30.12 850 25.1 17.1 62.7 23 -3.9 25 17.3 0.681
18:52 1020 30.12 850 25.1 17.1 62.7 24 -3.7 25.4 17.27 0.68
18:53 1020 30.12 850 25.1 17 62.6 24 -3.6 25.6 17.16 0.676
18:54 1020 30.12 850 25.1 16.9 62.4 23 -4 24.8 17.06 0.672
18:55 1020 30.12 850 25.1 16.9 62.4 23 -4.2 24.5 17.04 0.671
18:56 1020 30.12 850 25.1 16.8 62.3 24 -4 24.8 17.05 0.671
18:57 1020 30.12 850 25.1 16.8 62.3 24 -3.7 25.3 17.03 0.67
18:58 1020 30.12 850 25.1 16.8 62.2 24 -3.6 25.5 16.94 0.667
18:59 1020 30.12 850 25.1 16.7 62.1 24 -3.6 25.5 16.9 0.665
19:00 1020 30.12 850 25.1 16.7 62.1 23 -4.4 24.2 16.91 0.666
19:01 1020 30.12 850 25.1 16.8 62.2 23 -4.5 24 16.97 0.668
19:02 1020 30.12 850 25.1 16.7 62.1 25 -3.5 25.6 16.92 0.666
19:03 1020 30.12 850 25.1 16.7 62 24 -3.7 25.3 16.89 0.665
19:04 1020 30.12 850 25.1 16.6 62 25 -3.6 25.5 16.83 0.663
19:05 1020 30.12 850 25.1 16.5 61.7 25 -3.7 25.4 16.69 0.657
19:06 1021 30.15 850 25.1 16.4 61.6 24 -4 24.8 16.62 0.654
19:07 1020 30.12 850 25.1 16.4 61.5 24 -4.3 24.3 16.53 0.651
19:08 1020 30.12 850 25.1 16.3 61.4 23 -4.5 23.9 16.52 0.65
19:09 1020 30.12 850 25.1 16.3 61.4 25 -3.9 25 16.5 0.65
19:10 1020 30.12 850 25.1 16.3 61.4 23 -4.9 23.1 16.53 0.651
19:11 1020 30.12 850 25.1 16.3 61.4 23 -4.8 23.3 16.55 0.652
19:12 1020 30.12 850 25.1 16.4 61.5 24 -4.2 24.5 16.62 0.654
19:13 1020 30.12 850 25.1 16.5 61.6 25 -3.3 26.1 16.67 0.656
19:14 1020 30.12 850 25.1 16.4 61.6 25 -3.3 26 16.59 0.653
19:15 1021 30.15 850 25.1 16.4 61.5 26 -3.3 26.1 16.46 0.648
19:16 1021 30.15 850 25.1 16.3 61.3 25 -3.4 25.8 16.39 0.645
19:17 1021 30.15 850 25.1 16.2 61.2 25 -3.5 25.8 16.39 0.645
19:18 1021 30.15 850 25.1 16.2 61.1 25 -3.8 25.2 16.29 0.641
19:19 1020 30.12 850 25.1 16.1 60.9 24 -4.7 23.6 16.21 0.638
19:20 1020 30.12 850 25.1 16.1 61 23 -4.7 23.6 16.25 0.64
19:21 1021 30.15 850 25.1 16.1 61 25 -4 24.7 16.3 0.642
19:22 1020 30.12 850 25.1 16.1 60.9 25 -3.9 24.9 16.18 0.637
19:23 1020 30.12 850 25.1 15.9 60.7 24 -4.4 24.1 16.04 0.631
19:24 1021 30.15 850 25.1 15.8 60.4 25 -4.2 24.4 15.96 0.628
19:25 1021 30.15 850 25.1 15.7 60.2 25 -4.5 23.9 15.87 0.625
19:26 1021 30.15 850 25.1 15.7 60.2 23 -5.2 22.7 15.83 0.623
19:27 1021 30.15 850 25.1 15.6 60.1 24 -5 23 15.85 0.624
19:28 1021 30.15 850 25.1 15.6 60.1 25 -4.4 24.1 15.87 0.625
19:29 1021 30.15 850 25.1 15.6 60.1 25 -4.4 24 15.76 0.62
19:30 1021 30.15 850 25.1 15.5 59.9 26 -3.9 25.1 15.68 0.617
19:31 1021 30.15 850 25.1 15.3 59.6 26 -3.8 25.1 15.58 0.613
19:32 1021 30.15 850 25.1 15.1 59.2 28 -3.2 26.2 15.47 0.609
19:33 1021 30.15 850 25.1 14.7 58.5 29 -2.9 26.9 15.2 0.598
19:34 1021 30.15 850 25.1 14.4 57.9 28 -3.9 25 14.85 0.585
19:35 1021 30.15 850 25.1 14.3 57.7 30 -2.9 26.7 14.66 0.577
19:36 1021 30.15 850 25.1 13.9 57.1 37 -0.5 31.1 14.31 0.563
19:37 1021 30.15 850 25.1 13.1 55.5 36 -1.7 28.9 13.6 0.535
19:38 1021 30.15 850 25.1 12.6 54.7 38 -1.4 29.6 12.98 0.511
19:39 1021 30.15 850 25.1 12.3 54.2 39 -1.1 30 12.69 0.5
19:40 1021 30.15 850 25.1 12.1 53.7 43 -0.2 31.7 12.43 0.489
19:41 1021 30.15 850 25.1 11.6 52.8 44 -0.3 31.5 11.99 0.472
19:42 1021 30.15 850 25.1 11.2 52.1 43 -0.8 30.6 11.55 0.455
19:43 1021 30.15 850 25.1 11 51.8 43 -1.1 30 11.31 0.445
19:44 1021 30.15 850 25.1 11 51.7 42 -1.5 29.3 11.26 0.443
19:45 1021 30.15 850 25.1 11 51.7 42 -1.3 29.7 11.25 0.443
19:46 1021 30.15 850 25.1 10.9 51.6 44 -0.8 30.5 11.2 0.441
19:47 1021 30.15 850 25.1 10.7 51.2 46 -0.5 31.1 10.9 0.429
19:48 1021 30.15 850 25.1 10.3 50.6 48 -0.1 31.7 10.6 0.417
19:49 1021 30.15 850 25.1 9.9 49.9 51 0.4 32.7 10.29 0.405
19:50 1021 30.15 850 25.1 9.4 48.8 54 0.7 33.2 9.72 0.383
19:51 1021 30.15 850 25.1 8.7 47.6 55 0.2 32.4 9.01 0.355
19:52 1021 30.15 850 25.1 8.3 46.9 56 0 32 8.63 0.34
19:53 1021 30.15 850 25.1 8.1 46.6 56 -0.1 31.8 8.47 0.333
19:54 1021 30.15 850 25.1 8 46.4 58 0.4 32.6 8.33 0.328
19:55 1021 30.15 850 25.1 7.8 46 61 0.7 33.3 8.11 0.319
19:56 1021 30.15 850 25.1 7.5 45.4 63 0.8 33.4 7.86 0.309
19:57 1021 30.15 850 25.1 7.2 45 62 0.6 33 7.59 0.299
19:58 1021 30.15 850 25.1 7 44.6 64 0.7 33.3 7.4 0.291
19:59 1021 30.15 850 25.1 6.8 44.2 64 0.6 33 7.19 0.283
20:00 1021 30.15 850 25.1 6.6 44 63 0.2 32.3 7.01 0.276
20:01 1021 30.15 850 25.1 6.5 43.7 62 -0.2 31.7 6.877 0.271
20:02 1021 30.15 850 25.1 6.5 43.7 62 -0.3 31.5 6.821 0.269
20:03 1021 30.15 850 25.1 6.6 43.8 60 -0.5 31 6.889 0.271
20:04 1021 30.15 850 25.1 6.6 43.9 60 -0.5 31 6.929 0.273
20:05 1021 30.15 850 25.1 6.7 44 60 -0.6 31 6.94 0.273
20:06 1021 30.15 850 25.1 6.6 43.9 60 -0.5 31.1 6.878 0.271
20:07 1021 30.15 850 25.1 6.5 43.7 60 -0.6 30.9 6.839 0.269
20:08 1021 30.15 850 25.1 6.5 43.7 60 -0.7 30.7 6.8 0.268
20:09 1021 30.15 850 25.1 6.5 43.7 58 -1.1 30.1 6.834 0.269
20:10 1021 30.15 850 25.1 6.7 44 56 -1.4 29.5 6.981 0.275
20:11 1021 30.15 850 25.1 7 44.5 56 -1.2 29.9 7.24 0.285
20:12 1021 30.15 850 25.1 7 44.7 57 -0.9 30.4 7.36 0.29
20:13 1021 30.15 850 25.1 7 44.6 58 -0.7 30.7 7.31 0.288
20:14 1021 30.15 850 25.1 6.8 44.3 58 -0.9 30.4 7.17 0.282
20:15 1021 30.15 850 25.1 6.7 44.1 58 -1 30.3 7.1 0.28
20:16 1021 30.15 850 25.1 6.7 44.1 57 -1.1 30.1 7.1 0.28
20:17 1021 30.15 850 25.1 6.8 44.2 58 -0.8 30.5 7.08 0.279
20:18 1021 30.15 850 25.1 6.6 43.9 59 -0.9 30.4 7.02 0.276
20:19 1021 30.15 850 25.1 6.6 43.9 59 -0.8 30.5 6.959 0.274
20:20 1021 30.15 850 25.1 6.5 43.7 59 -0.8 30.5 6.903 0.272
20:21 1021 30.15 850 25.1 6.4 43.5 59 -0.9 30.4 6.77 0.267
20:22 1021 30.15 850 25.1 6.3 43.4 59 -1 30.3 6.69 0.263
20:23 1021 30.15 850 25.1 6.3 43.3 59 -1 30.2 6.685 0.263
20:24 1021 30.15 850 25.1 6.2 43.2 61 -0.8 30.6 6.596 0.26
20:25 1021 30.15 850 25.1 6 42.8 63 -0.6 31 6.376 0.251
20:26 1021 30.15 850 25.1 5.7 42.3 64 -0.5 31.2 6.122 0.241
20:27 1021 30.15 850 25.1 5.5 41.8 65 -0.6 30.9 5.857 0.231
20:28 1021 30.15 850 25.1 5.3 41.6 65 -0.8 30.6 5.722 0.225
20:29 1021 30.15 850 25.1 5.4 41.7 65 -0.7 30.7 5.762 0.227
20:30 1021 30.15 850 25.1 5.4 41.7 65 -0.7 30.8 5.757 0.227
20:31 1021 30.15 850 25.1 5.3 41.5 64 -0.9 30.4 5.672 0.223
20:32 1021 30.15 850 25.1 5.3 41.5 63 -1.1 30 5.661 0.223
20:33 1021 30.15 850 25.1 5.4 41.8 61 -1.4 29.4 5.786 0.228
20:34 1021 30.15 850 25.1 5.6 42.1 59 -1.8 28.8 5.933 0.234
20:35 1021 30.15 850 25.1 6 42.7 57 -1.9 28.6 6.255 0.246
20:36 1021 30.15 850 25.1 6.3 43.3 56 -1.8 28.8 6.555 0.258
20:37 1021 30.15 850 25.1 6.4 43.6 56 -1.7 28.9 6.725 0.265
20:38 1021 30.15 850 25.1 6.5 43.6 56 -1.6 29.2 6.721 0.265
20:39 1021 30.15 850 25.1 6.4 43.5 57 -1.4 29.4 6.67 0.263
20:40 1021 30.15 850 25.1 6.2 43.1 58 -1.4 29.6 6.54 0.257
20:41 1021 30.15 850 25.1 5.9 42.6 60 -1.3 29.6 6.242 0.246
20:42 1021 30.15 850 25.1 5.6 42.2 62 -1.1 30.1 6.011 0.237
20:43 1021 30.15 850 25.1 5.4 41.7 64 -1 30.2 5.796 0.228
20:44 1021 30.15 850 25.1 5.3 41.5 63 -1.2 29.8 5.652 0.223
20:45 1021 30.15 850 25.1 5.4 41.7 63 -1.1 30 5.743 0.226
20:46 1021 30.15 850 25.1 5.4 41.8 64 -0.9 30.4 5.788 0.228
20:47 1021 30.15 850 25.1 5.3 41.6 64 -0.9 30.3 5.711 0.225
20:48 1021 30.15 850 25.1 5.2 41.3 63 -1.4 29.5 5.57 0.219
20:49 1021 30.15 850 25.1 5.2 41.3 60 -1.9 28.6 5.53 0.218
20:50 1021 30.15 850 25.1 5.3 41.6 59 -1.9 28.5 5.667 0.223
20:51 1021 30.15 850 25.1 5.5 41.9 59 -2 28.4 5.815 0.229
20:52 1021 30.15 850 25.1 5.6 42.1 58 -2 28.5 5.905 0.232
20:53 1021 30.15 850 25.1 5.6 42.1 57 -2.2 28.1 5.969 0.235
20:54 1021 30.15 850 25.1 5.7 42.3 57 -2.1 28.2 6.02 0.237
20:55 1021 30.15 850 25.1 5.8 42.4 57 -2.2 28.1 6.099 0.24
20:56 1021 30.15 850 25.1 5.9 42.5 56 -2.2 28.1 6.156 0.242
20:57 1021 30.15 850 25.1 5.9 42.6 57 -2 28.4 6.224 0.245
20:58 1021 30.15 850 25.1 5.8 42.4 57 -1.9 28.5 6.145 0.242
20:59 1021 30.15 851 25.13 5.7 42.2 59 -1.8 28.8 6.01 0.237
21:00 1021 30.15 851 25.13 5.5 41.8 59 -1.8 28.8 5.813 0.229
21:01 1021 30.15 851 25.13 5.3 41.6 59 -2 28.4 5.688 0.224
21:02 1021 30.15 850 25.1 5.2 41.4 60 -2 28.5 5.621 0.221
21:03 1021 30.15 851 25.13 5.3 41.5 60 -1.8 28.8 5.604 0.221
21:04 1021 30.15 851 25.13 5.2 41.3 61 -1.8 28.8 5.542 0.218
21:05 1021 30.15 851 25.13 5.1 41.1 61 -1.9 28.6 5.446 0.214
21:06 1021 30.15 851 25.13 5.1 41.2 60 -1.9 28.5 5.458 0.215
21:07 1021 30.15 851 25.13 5.1 41.2 60 -1.9 28.6 5.469 0.215
21:08 1021 30.15 851 25.13 5.1 41.2 61 -1.9 28.6 5.52 0.217
21:09 1021 30.15 851 25.13 5.1 41.1 60 -1.9 28.5 5.441 0.214
21:10 1021 30.15 851 25.13 5 41 61 -2 28.5 5.391 0.212
21:11 1021 30.15 851 25.13 5 40.9 61 -1.9 28.6 5.312 0.209
21:12 1021 30.15 851 25.13 4.9 40.8 61 -2 28.4 5.244 0.206
21:13 1021 30.15 851 25.13 4.8 40.7 61 -2 28.5 5.182 0.204
21:14 1021 30.15 851 25.13 4.7 40.5 62 -2 28.4 5.086 0.2
21:15 1021 30.15 851 25.13 4.7 40.4 62 -1.9 28.6 5.041 0.198
21:16 1021 30.15 851 25.13 4.6 40.3 63 -1.9 28.7 5.025 0.198
21:17 1021 30.15 851 25.13 4.6 40.4 63 -1.9 28.7 5.025 0.198
21:18 1021 30.15 851 25.13 4.6 40.4 63 -1.9 28.6 5.02 0.198
21:19 1021 30.15 851 25.13 4.7 40.4 63 -1.8 28.7 5.031 0.198
21:20 1021 30.15 851 25.13 4.6 40.3 63 -1.8 28.7 4.991 0.196
21:21 1021 30.15 851 25.13 4.6 40.2 62 -2 28.5 4.957 0.195
21:22 1021 30.15 851 25.13 4.5 40.1 62 -2.1 28.2 4.863 0.191
21:23 1021 30.15 851 25.13 4.5 40.1 61 -2.3 27.8 4.847 0.191
21:24 1021 30.15 851 25.13 4.6 40.3 59 -2.7 27.2 4.972 0.196
21:25 1021 30.15 851 25.13 4.8 40.7 58 -2.7 27.2 5.132 0.202
21:26 1021 30.15 851 25.13 5 41 58 -2.7 27.2 5.313 0.209
21:27 1021 30.15 851 25.13 5.2 41.3 56 -2.8 26.9 5.449 0.215
21:28 1021 30.15 851 25.13 5.3 41.6 54 -3.2 26.3 5.643 0.222
21:29 1021 30.15 851 25.13 5.6 42.1 54 -2.9 26.8 5.869 0.231
21:30 1021 30.15 851 25.13 5.7 42.3 54 -2.9 26.8 6.016 0.237
21:31 1021 30.15 851 25.13 5.7 42.3 55 -2.6 27.2 6.057 0.238
21:32 1021 30.15 851 25.13 5.7 42.2 55 -2.7 27.2 6.007 0.236
21:33 1021 30.15 851 25.13 5.6 42.1 55 -2.7 27.2 5.933 0.234
21:34 1021 30.15 851 25.13 5.5 41.9 56 -2.6 27.4 5.849 0.23
21:35 1021 30.15 851 25.13 5.4 41.7 57 -2.5 27.6 5.708 0.225
21:36 1021 30.15 851 25.13 5.2 41.4 56 -2.7 27.1 5.589 0.22
21:37 1021 30.15 851 25.13 5.2 41.3 56 -2.9 26.8 5.506 0.217
21:38 1021 30.15 851 25.13 5.2 41.3 56 -2.9 26.7 5.517 0.217
21:39 1021 30.15 851 25.13 5.2 41.4 55 -3.1 26.4 5.551 0.219
21:40 1021 30.15 851 25.13 5.3 41.5 56 -2.8 26.9 5.591 0.22
21:41 1021 30.15 851 25.13 5.2 41.4 58 -2.4 27.6 5.58 0.22
21:42 1021 30.15 851 25.13 5 41.1 57 -2.7 27.1 5.371 0.211
21:43 1021 30.15 851 25.13 4.9 40.7 57 -2.9 26.7 5.292 0.208
21:44 1021 30.15 851 25.13 4.9 40.8 57 -2.9 26.7 5.292 0.208
21:45 1021 30.15 851 25.13 5.1 41.1 56 -3.1 26.5 5.405 0.213
21:46 1021 30.15 851 25.13 5.3 41.5 55 -3.1 26.5 5.615 0.221
21:47 1021 30.15 851 25.13 5.5 41.9 54 -3.2 26.3 5.745 0.226
21:48 1021 30.15 851 25.13 5.7 42.3 53 -3.1 26.5 5.983 0.236
21:49 1021 30.15 851 25.13 5.9 42.6 52 -3.1 26.4 6.113 0.241
21:50 1021 30.15 851 25.13 5.9 42.7 52 -3.1 26.3 6.175 0.243
21:51 1021 30.15 851 25.13 6 42.8 51 -3.3 26.1 6.249 0.246
21:52 1021 30.15 851 25.13 6.1 42.9 51 -3.2 26.2 6.311 0.248
21:53 1021 30.15 851 25.13 6 42.9 51 -3.3 26.1 6.255 0.246
21:54 1021 30.15 851 25.13 6 42.8 51 -3.4 26 6.249 0.246
21:55 1021 30.15 851 25.13 6 42.7 51 -3.4 25.9 6.227 0.245
21:56 1021 30.15 851 25.13 6 42.7 51 -3.3 26.1 6.204 0.244
21:57 1021 30.15 851 25.13 5.9 42.7 52 -3.3 26.1 6.204 0.244
21:58 1021 30.15 851 25.13 5.9 42.5 52 -3.3 26.1 6.125 0.241
21:59 1021 30.15 851 25.13 5.8 42.4 52 -3.3 26.1 6.125 0.241
22:00 1021 30.15 851 25.13 5.7 42.3 53 -3.1 26.4 6.063 0.239
22:01 1021 30.15 851 25.13 5.6 42.1 53 -3.1 26.4 5.984 0.236
22:02 1021 30.15 851 25.13 5.5 42 54 -3 26.5 5.848 0.23
22:03 1021 30.15 851 25.13 5.4 41.7 55 -2.8 26.9 5.78 0.228
22:04 1021 30.15 851 25.13 5.3 41.6 54 -3.3 26 5.656 0.223
22:05 1021 30.15 851 25.13 5.4 41.7 53 -3.4 25.9 5.73 0.226
22:06 1021 30.15 851 25.13 5.6 42 53 -3.2 26.3 5.889 0.232
22:07 1021 30.15 851 25.13 5.9 42.5 53 -3 26.5 6.155 0.242
22:08 1022 30.18 851 25.13 6 42.9 52 -2.9 26.7 6.393 0.252
22:09 1022 30.18 851 25.13 6.2 43.2 53 -2.7 27.1 6.547 0.258
22:10 1022 30.18 851 25.13 6.3 43.3 52 -2.8 26.9 6.57 0.259
22:11 1022 30.18 851 25.13 6.3 43.4 51 -2.9 26.7 6.621 0.261
22:12 1022 30.18 851 25.13 6.3 43.4 51 -3 26.6 6.621 0.261
22:13 1022 30.18 851 25.13 6.3 43.3 52 -2.9 26.7 6.571 0.259
22:14 1022 30.18 851 25.13 6.2 43.1 51 -3.2 26.2 6.508 0.256
22:15 1022 30.18 851 25.13 6.3 43.3 49 -3.5 25.7 6.588 0.259
22:16 1022 30.18 851 25.13 6.5 43.7 49 -3.5 25.7 6.775 0.267
22:17 1022 30.18 851 25.13 6.8 44.2 48 -3.5 25.7 7.05 0.278
22:18 1022 30.18 851 25.13 7 44.5 48 -3.3 26.1 7.19 0.283
22:19 1022 30.18 851 25.13 7 44.5 47 -3.6 25.5 7.22 0.284
22:20 1022 30.18 851 25.13 7 44.6 46 -3.7 25.3 7.22 0.284
22:21 1022 30.18 851 25.13 7.1 44.7 46 -3.9 25 7.35 0.289
22:22 1022 30.18 851 25.13 7.3 45.1 44 -4.1 24.7 7.54 0.297
22:23 1022 30.18 851 25.13 7.5 45.6 44 -4.1 24.7 7.79 0.307
22:24 1022 30.18 851 25.13 7.7 45.9 43 -4.2 24.5 8.01 0.315
22:25 1022 30.18 851 25.13 7.9 46.1 43 -3.9 24.9 8.09 0.319
22:26 1022 30.18 851 25.13 7.9 46.1 43 -4 24.9 8.15 0.321
22:27 1022 30.18 851 25.13 7.8 46 43 -4.1 24.5 8.03 0.316
22:28 1022 30.18 851 25.13 7.7 45.8 43 -4.1 24.6 7.91 0.311
22:29 1022 30.18 851 25.13 7.5 45.5 43 -4.2 24.4 7.79 0.307
22:30 1022 30.18 851 25.13 7.4 45.4 43 -4.2 24.4 7.71 0.304
22:31 1022 30.18 851 25.13 7.4 45.2 44 -4.1 24.6 7.71 0.304
22:32 1022 30.18 851 25.13 7.4 45.4 44 -4.1 24.7 7.71 0.304
22:33 1022 30.18 851 25.13 7.6 45.6 42 -4.6 23.7 7.91 0.311
22:34 1022 30.18 851 25.13 8 46.3 41 -4.6 23.8 8.24 0.324
22:35 1022 30.18 851 25.13 8.2 46.7 41 -4.4 24.1 8.46 0.333
22:36 1022 30.18 851 25.13 8.3 46.9 40 -4.6 23.8 8.54 0.336
22:37 1022 30.18 851 25.13 8.3 47 40 -4.3 24.3 8.6 0.339
22:38 1022 30.18 851 25.13 8.3 47 41 -4.3 24.3 8.57 0.337
22:39 1022 30.18 851 25.13 8.2 46.8 41 -4.3 24.3 8.54 0.336
22:40 1022 30.18 851 25.13 8.1 46.6 42 -4 24.8 8.43 0.332
22:41 1022 30.18 851 25.13 8 46.3 41 -4.4 24.1 8.26 0.325
22:42 1022 30.18 851 25.13 7.9 46.3 42 -4.2 24.5 8.25 0.325
22:43 1022 30.18 851 25.13 7.8 46.1 43 -4.1 24.6 8.16 0.321
22:44 1022 30.18 851 25.13 7.7 45.9 43 -4.1 24.7 8.08 0.318
22:45 1022 30.18 851 25.13 7.7 45.8 44 -3.9 24.9 7.99 0.315
22:46 1022 30.18 851 25.13 7.6 45.6 44 -4 24.9 7.88 0.31
22:47 1022 30.18 851 25.13 7.5 45.4 43 -4.1 24.5 7.79 0.307
22:48 1022 30.18 851 25.13 7.5 45.5 43 -4.3 24.3 7.89 0.311
22:49 1022 30.18 851 25.13 7.7 45.8 42 -4.4 24 7.98 0.314
22:50 1022 30.18 851 25.13 7.9 46.2 42 -4.2 24.5 8.14 0.32
22:51 1022 30.18 851 25.13 7.9 46.3 42 -4.1 24.7 8.23 0.324
22:52 1022 30.18 851 25.13 8 46.3 42 -4.1 24.6 8.24 0.324
22:53 1022 30.18 851 25.13 8 46.5 42 -4.1 24.7 8.32 0.328
22:54 1022 30.18 851 25.13 8.1 46.6 42 -4.2 24.5 8.39 0.33
22:55 1022 30.18 851 25.13 8.1 46.7 40 -4.6 23.8 8.47 0.333
22:56 1022 30.18 851 25.13 8.2 46.7 41 -4.4 24.1 8.53 0.336
22:57 1022 30.18 851 25.13 8.2 46.8 41 -4.3 24.2 8.52 0.335
22:58 1022 30.18 851 25.13 8.2 46.7 41 -4.2 24.4 8.49 0.334
22:59 1022 30.18 851 25.13 8.1 46.5 42 -4.1 24.6 8.41 0.331
23:00 1022 30.18 851 25.13 7.9 46.3 41 -4.4 24.1 8.26 0.325
23:01 1022 30.18 851 25.13 7.8 46.1 43 -3.9 24.9 8.17 0.322
23:02 1022 30.18 851 25.13 7.7 45.8 42 -4.3 24.2 7.99 0.315
23:03 1022 30.18 851 25.13 7.6 45.7 43 -4.1 24.6 7.94 0.313
23:04 1022 30.18 851 25.13 7.5 45.6 43 -4.3 24.3 7.85 0.309
23:05 1022 30.18 851 25.13 7.5 45.5 44 -4.1 24.6 7.81 0.307
23:06 1022 30.18 851 25.13 7.3 45.1 45 -4 24.8 7.62 0.3
23:07 1022 30.18 851 25.13 7.1 44.8 45 -4 24.9 7.44 0.293
23:08 1022 30.18 851 25.13 7 44.5 46 -3.9 25 7.29 0.287
23:09 1022 30.18 851 25.13 6.8 44.3 46 -4 24.9 7.2 0.283
23:10 1022 30.18 851 25.13 6.8 44.2 46 -4 24.8 7.13 0.281
23:11 1022 30.18 851 25.13 6.8 44.2 47 -3.8 25.1 7.11 0.28
23:12 1022 30.18 851 25.13 6.7 44.1 47 -3.8 25.2 7.03 0.277
23:13 1022 30.18 851 25.13 6.6 43.9 48 -3.5 25.7 6.947 0.274
23:14 1022 30.18 851 25.13 6.4 43.5 49 -3.6 25.6 6.784 0.267
23:15 1022 30.18 851 25.13 6.3 43.3 49 -3.7 25.4 6.637 0.261
23:16 1022 30.18 851 25.13 6.3 43.3 49 -3.5 25.6 6.614 0.26
23:17 1022 30.18 851 25.13 6.1 43.1 50 -3.5 25.7 6.502 0.256
23:18 1022 30.18 851 25.13 6 42.8 51 -3.5 25.8 6.394 0.252
23:19 1022 30.18 851 25.13 5.9 42.6 50 -3.8 25.2 6.258 0.246
23:20 1022 30.18 851 25.13 6 42.8 49 -3.9 24.9 6.332 0.249
23:21 1022 30.18 851 25.13 6.3 43.3 47 -4.2 24.4 6.581 0.259
23:22 1022 30.18 851 25.13 6.4 43.4 49 -3.5 25.8 6.677 0.263
23:23 1022 30.18 851 25.13 6 42.9 52 -3.1 26.5 6.417 0.253
23:24 1022 30.18 851 25.13 5.8 42.4 50 -3.9 25.1 6.157 0.242
23:25 1022 30.18 851 25.13 5.8 42.4 51 -3.6 25.6 6.089 0.24
23:26 1022 30.18 851 25.13 5.7 42.3 51 -3.5 25.6 6.044 0.238
23:27 1022 30.18 851 25.13 5.6 42.1 52 -3.5 25.6 5.954 0.234
23:28 1022 30.18 851 25.13 5.5 41.9 53 -3.4 25.9 5.858 0.231
23:29 1022 30.18 851 25.13 5.3 41.5 54 -3.3 26 5.677 0.224
23:30 1022 30.18 851 25.13 5.1 41.1 54 -3.4 25.9 5.479 0.216
23:31 1022 30.18 851 25.13 4.9 40.9 56 -3.1 26.4 5.377 0.212
23:32 1022 30.18 851 25.13 4.8 40.6 55 -3.5 25.8 5.179 0.204
23:33 1022 30.18 851 25.13 4.8 40.7 53 -4 24.8 5.179 0.204
23:34 1022 30.18 851 25.13 5 41.1 52 -3.9 25 5.338 0.21
23:35 1022 30.18 851 25.13 5.3 41.5 50 -4.3 24.3 5.519 0.217
23:36 1022 30.18 851 25.13 5.6 42 48 -4.5 23.9 5.824 0.229
23:37 1022 30.18 851 25.13 5.9 42.7 46 -4.9 23.2 6.147 0.242
23:38 1022 30.18 851 25.13 6.3 43.3 48 -3.9 25 6.526 0.257
23:39 1022 30.18 851 25.13 6 42.9 49 -3.8 25.1 6.39 0.252
23:40 1022 30.18 851 25.13 5.7 42.3 50 -3.9 25.1 6.062 0.239
23:41 1022 30.18 851 25.13 5.7 42.2 46 -4.9 23.2 5.983 0.236
23:42 1022 30.18 851 25.13 6.1 42.9 46 -4.6 23.7 6.373 0.251
23:43 1022 30.18 851 25.13 6.2 43.2 46 -4.6 23.7 6.475 0.255
23:44 1022 30.18 851 25.13 6.2 43.2 47 -4.3 24.2 6.537 0.257
23:45 1022 30.18 851 25.13 6.2 43.2 49 -3.8 25.2 6.537 0.257
23:46 1022 30.18 851 25.13 6 42.7 48 -4.1 24.6 6.351 0.25
23:47 1022 30.18 851 25.13 5.9 42.6 49 -4 24.8 6.243 0.246
23:48 1022 30.18 851 25.13 5.9 42.6 48 -4.2 24.4 6.238 0.246
23:49 1022 30.18 851 25.13 6.1 42.9 47 -4.5 23.9 6.402 0.252
23:50 1022 30.18 851 25.13 6.3 43.3 46 -4.4 24.1 6.594 0.26
23:51 1022 30.18 851 25.13 6.3 43.4 46 -4.4 24.1 6.702 0.264
23:52 1022 30.18 851 25.13 6.3 43.4 47 -4.3 24.3 6.73 0.265
23:53 1022 30.18 851 25.13 6.2 43.2 47 -4.1 24.5 6.617 0.261
23:54 1022 30.18 851 25.13 6.1 43 48 -4.2 24.5 6.504 0.256
23:55 1022 30.18 851 25.13 6 42.8 49 -4 24.9 6.419 0.253
23:56 1022 30.18 851 25.13 5.9 42.7 49 -4 24.8 6.345 0.25
23:57 1022 30.18 851 25.13 5.9 42.6 48 -4.3 24.3 6.283 0.247
23:58 1022 30.18 851 25.13 5.9 42.6 47 -4.6 23.7 6.255 0.246
23:59 1022 30.18 851 25.13 5.9 42.6 52 -3.3 26 6.209 0.244
24:00 1022 30.18 851 25.13 5.7 42.3 49 -4.2 24.5 6.028 0.237